<?xml version='1.0' encoding='UTF-8'?>
<osm version="0.6" generator="Osmosis 0.43.1">
  <bounds minlon="12.61230" minlat="50.14160" maxlon="14.01855" maxlat="50.75684" origin="0.43.1"/>
  <node id="541187" version="1" timestamp="1970-01-01T00:00:00Z" uid="0" user="" lat="50.6882176" lon="12.6099119"/>
  <node id="541188" version="1" timestamp="1970-01-01T00:00:00Z" uid="0" user="" lat="50.6866412" lon="12.6148918"/>
  <node id="541189" version="1" timestamp="1970-01-01T00:00:00Z" uid="0" user="" lat="50.6825634" lon="12.632121"/>
  <node id="541190" version="1" timestamp="1970-01-01T00:00:00Z" uid="0" user="" lat="50.6820055" lon="12.6400731"/>
  <node id="541191" version="1" timestamp="1970-01-01T00:00:00Z" uid="0" user="" lat="50.6827885" lon="12.6469938"/>
  <node id="541194" version="1" timestamp="1970-01-01T00:00:00Z" uid="0" user="" lat="50.6909143" lon="12.6706164"/>
  <node id="541195" version="1" timestamp="1970-01-01T00:00:00Z" uid="0" user="" lat="50.6896724" lon="12.6787874"/>
  <node id="541196" version="1" timestamp="1970-01-01T00:00:00Z" uid="0" user="" lat="50.6894166" lon="12.6808156"/>
  <node id="541197" version="1" timestamp="1970-01-01T00:00:00Z" uid="0" user="" lat="50.6897823" lon="12.686266"/>
  <node id="541198" version="1" timestamp="1970-01-01T00:00:00Z" uid="0" user="" lat="50.6912731" lon="12.6926539"/>
  <node id="541201" version="1" timestamp="1970-01-01T00:00:00Z" uid="0" user="" lat="50.6990584" lon="12.7431714"/>
  <node id="541202" version="1" timestamp="1970-01-01T00:00:00Z" uid="0" user="" lat="50.7013862" lon="12.7491333"/>
  <node id="541203" version="1" timestamp="1970-01-01T00:00:00Z" uid="0" user="" lat="50.7044547" lon="12.75321"/>
  <node id="541204" version="1" timestamp="1970-01-01T00:00:00Z" uid="0" user="" lat="50.7066682" lon="12.7557573"/>
  <node id="541205" version="1" timestamp="1970-01-01T00:00:00Z" uid="0" user="" lat="50.7122786" lon="12.7585392"/>
  <node id="541206" version="1" timestamp="1970-01-01T00:00:00Z" uid="0" user="" lat="50.7141526" lon="12.7600277"/>
  <node id="541207" version="1" timestamp="1970-01-01T00:00:00Z" uid="0" user="" lat="50.7154133" lon="12.7615666"/>
  <node id="541209" version="1" timestamp="1970-01-01T00:00:00Z" uid="0" user="" lat="50.7261058" lon="12.7776211"/>
  <node id="541210" version="1" timestamp="1970-01-01T00:00:00Z" uid="0" user="" lat="50.7275362" lon="12.7786645"/>
  <node id="541211" version="1" timestamp="1970-01-01T00:00:00Z" uid="0" user="" lat="50.7337625" lon="12.7803076"/>
  <node id="541212" version="1" timestamp="1970-01-01T00:00:00Z" uid="0" user="" lat="50.7376853" lon="12.7821037"/>
  <node id="541213" version="1" timestamp="1970-01-01T00:00:00Z" uid="0" user="" lat="50.741728" lon="12.7856371"/>
  <node id="541214" version="1" timestamp="1970-01-01T00:00:00Z" uid="0" user="" lat="50.7444008" lon="12.7893546"/>
  <node id="541215" version="1" timestamp="1970-01-01T00:00:00Z" uid="0" user="" lat="50.7469314" lon="12.7940353"/>
  <node id="20100697" version="1" timestamp="1970-01-01T00:00:00Z" uid="0" user="" lat="50.6857418" lon="12.6516585"/>
  <node id="20100701" version="1" timestamp="1970-01-01T00:00:00Z" uid="0" user="" lat="50.6856467" lon="12.6517916"/>
  <node id="20100704" version="1" timestamp="1970-01-01T00:00:00Z" uid="0" user="" lat="50.6898155" lon="12.6594534"/>
  <node id="20100705" version="1" timestamp="1970-01-01T00:00:00Z" uid="0" user="" lat="50.688161" lon="12.6549465"/>
  <node id="20100706" version="1" timestamp="1970-01-01T00:00:00Z" uid="0" user="" lat="50.6846486" lon="12.6505712"/>
  <node id="20100709" version="1" timestamp="1970-01-01T00:00:00Z" uid="0" user="" lat="50.6912307" lon="12.7100061"/>
  <node id="20100710" version="1" timestamp="1970-01-01T00:00:00Z" uid="0" user="" lat="50.7205513" lon="12.7688586"/>
  <node id="20100711" version="1" timestamp="1970-01-01T00:00:00Z" uid="0" user="" lat="50.7546401" lon="12.8029556"/>
  <node id="20100712" version="1" timestamp="1970-01-01T00:00:00Z" uid="0" user="" lat="50.7500998" lon="12.7980994"/>
  <node id="20975237" version="1" timestamp="1970-01-01T00:00:00Z" uid="0" user="" lat="50.7547247" lon="12.802794"/>
  <node id="20975238" version="1" timestamp="1970-01-01T00:00:00Z" uid="0" user="" lat="50.7502496" lon="12.7979869"/>
  <node id="20975239" version="1" timestamp="1970-01-01T00:00:00Z" uid="0" user="" lat="50.7470813" lon="12.7939163"/>
  <node id="20975240" version="1" timestamp="1970-01-01T00:00:00Z" uid="0" user="" lat="50.7444652" lon="12.7891831"/>
  <node id="20975241" version="1" timestamp="1970-01-01T00:00:00Z" uid="0" user="" lat="50.7417712" lon="12.7854573"/>
  <node id="20975242" version="1" timestamp="1970-01-01T00:00:00Z" uid="0" user="" lat="50.7377258" lon="12.7819339"/>
  <node id="20975243" version="1" timestamp="1970-01-01T00:00:00Z" uid="0" user="" lat="50.7338097" lon="12.7801339"/>
  <node id="20975244" version="1" timestamp="1970-01-01T00:00:00Z" uid="0" user="" lat="50.7275958" lon="12.7785091"/>
  <node id="20975245" version="1" timestamp="1970-01-01T00:00:00Z" uid="0" user="" lat="50.726592" lon="12.7778347">
    <tag k="maxspeed" v="130"/>
    <tag k="traffic_sign" v="DE:274[130]"/>
  </node>
  <node id="20975246" version="1" timestamp="1970-01-01T00:00:00Z" uid="0" user="" lat="50.724969" lon="12.7761854"/>
  <node id="20975247" version="1" timestamp="1970-01-01T00:00:00Z" uid="0" user="" lat="50.7206563" lon="12.768737"/>
  <node id="20975248" version="1" timestamp="1970-01-01T00:00:00Z" uid="0" user="" lat="50.7154663" lon="12.7614045"/>
  <node id="20975249" version="1" timestamp="1970-01-01T00:00:00Z" uid="0" user="" lat="50.7142725" lon="12.7599293"/>
  <node id="20975250" version="1" timestamp="1970-01-01T00:00:00Z" uid="0" user="" lat="50.7123422" lon="12.7583839"/>
  <node id="20975251" version="1" timestamp="1970-01-01T00:00:00Z" uid="0" user="" lat="50.7071701" lon="12.7559785"/>
  <node id="20975252" version="1" timestamp="1970-01-01T00:00:00Z" uid="0" user="" lat="50.7044702" lon="12.7529862"/>
  <node id="20975253" version="1" timestamp="1970-01-01T00:00:00Z" uid="0" user="" lat="50.7010136" lon="12.7481695"/>
  <node id="20975254" version="1" timestamp="1970-01-01T00:00:00Z" uid="0" user="" lat="50.6991548" lon="12.7431045"/>
  <node id="20975255" version="1" timestamp="1970-01-01T00:00:00Z" uid="0" user="" lat="50.6946565" lon="12.7281439">
    <tag k="name" v="Rastplatz Beuthenbach"/>
    <tag k="TMC:cid_58:tabcd_1:Class" v="Point"/>
    <tag k="TMC:cid_58:tabcd_1:Direction" v="negative"/>
    <tag k="TMC:cid_58:tabcd_1:LCLversion" v="9.00"/>
    <tag k="TMC:cid_58:tabcd_1:LocationCode" v="52370"/>
    <tag k="TMC:cid_58:tabcd_1:NextLocationCode" v="12447"/>
    <tag k="TMC:cid_58:tabcd_1:PrevLocationCode" v="12446"/>
  </node>
  <node id="20975256" version="1" timestamp="1970-01-01T00:00:00Z" uid="0" user="" lat="50.6916977" lon="12.7153948"/>
  <node id="20975257" version="1" timestamp="1970-01-01T00:00:00Z" uid="0" user="" lat="50.691403" lon="12.7074209"/>
  <node id="20975258" version="1" timestamp="1970-01-01T00:00:00Z" uid="0" user="" lat="50.6916581" lon="12.6991336"/>
  <node id="20975259" version="1" timestamp="1970-01-01T00:00:00Z" uid="0" user="" lat="50.6913781" lon="12.692599"/>
  <node id="20975260" version="1" timestamp="1970-01-01T00:00:00Z" uid="0" user="" lat="50.6898908" lon="12.6862049"/>
  <node id="20975261" version="1" timestamp="1970-01-01T00:00:00Z" uid="0" user="" lat="50.6894963" lon="12.6830214"/>
  <node id="20975262" version="1" timestamp="1970-01-01T00:00:00Z" uid="0" user="" lat="50.6897816" lon="12.6788232"/>
  <node id="20975263" version="1" timestamp="1970-01-01T00:00:00Z" uid="0" user="" lat="50.6910296" lon="12.6707312"/>
  <node id="20975264" version="1" timestamp="1970-01-01T00:00:00Z" uid="0" user="" lat="50.6899199" lon="12.6593293"/>
  <node id="20975265" version="1" timestamp="1970-01-01T00:00:00Z" uid="0" user="" lat="50.6882716" lon="12.654796"/>
  <node id="20975266" version="1" timestamp="1970-01-01T00:00:00Z" uid="0" user="" lat="50.6847274" lon="12.6504071"/>
  <node id="20975267" version="1" timestamp="1970-01-01T00:00:00Z" uid="0" user="" lat="50.6829033" lon="12.6469423"/>
  <node id="20975268" version="1" timestamp="1970-01-01T00:00:00Z" uid="0" user="" lat="50.6821135" lon="12.6400849"/>
  <node id="20975269" version="1" timestamp="1970-01-01T00:00:00Z" uid="0" user="" lat="50.6820557" lon="12.6436308"/>
  <node id="20975270" version="1" timestamp="1970-01-01T00:00:00Z" uid="0" user="" lat="50.6821804" lon="12.6435932"/>
  <node id="20975271" version="1" timestamp="1970-01-01T00:00:00Z" uid="0" user="" lat="50.6822195" lon="12.6343027"/>
  <node id="20975272" version="1" timestamp="1970-01-01T00:00:00Z" uid="0" user="" lat="50.6823272" lon="12.6343135"/>
  <node id="20975273" version="1" timestamp="1970-01-01T00:00:00Z" uid="0" user="" lat="50.682676" lon="12.6320829"/>
  <node id="20975274" version="1" timestamp="1970-01-01T00:00:00Z" uid="0" user="" lat="50.6863764" lon="12.6159793"/>
  <node id="20975275" version="1" timestamp="1970-01-01T00:00:00Z" uid="0" user="" lat="50.6883406" lon="12.6099978"/>
  <node id="23716121" version="1" timestamp="1970-01-01T00:00:00Z" uid="0" user="" lat="50.6915242" lon="12.7032753">
    <tag k="ref" v="12"/>
    <tag k="name" v="Hartenstein"/>
    <tag k="highway" v="motorway_junction"/>
    <tag k="TMC:cid_58:tabcd_1:Class" v="Point"/>
    <tag k="TMC:cid_58:tabcd_1:Direction" v="negative"/>
    <tag k="TMC:cid_58:tabcd_1:LCLversion" v="9.00"/>
    <tag k="TMC:cid_58:tabcd_1:LocationCode" v="12446"/>
    <tag k="TMC:cid_58:tabcd_1:NextLocationCode" v="52370"/>
    <tag k="TMC:cid_58:tabcd_1:PrevLocationCode" v="12444"/>
  </node>
  <node id="23716125" version="1" timestamp="1970-01-01T00:00:00Z" uid="0" user="" lat="50.6917139" lon="12.6958218"/>
  <node id="23716128" version="1" timestamp="1970-01-01T00:00:00Z" uid="0" user="" lat="50.6915988" lon="12.6958308"/>
  <node id="23716134" version="1" timestamp="1970-01-01T00:00:00Z" uid="0" user="" lat="50.691429" lon="12.7026754"/>
  <node id="23887597" version="1" timestamp="1970-01-01T00:00:00Z" uid="0" user="" lat="50.6857015" lon="12.6182994"/>
  <node id="23887602" version="1" timestamp="1970-01-01T00:00:00Z" uid="0" user="" lat="50.6856183" lon="12.6181689"/>
  <node id="23887606" version="1" timestamp="1970-01-01T00:00:00Z" uid="0" user="" lat="50.6892687" lon="12.6569556"/>
  <node id="23887610" version="1" timestamp="1970-01-01T00:00:00Z" uid="0" user="" lat="50.6891433" lon="12.6569963"/>
  <node id="23887615" version="1" timestamp="1970-01-01T00:00:00Z" uid="0" user="" lat="50.6905995" lon="12.6654506"/>
  <node id="23887618" version="1" timestamp="1970-01-01T00:00:00Z" uid="0" user="" lat="50.6904868" lon="12.6654704"/>
  <node id="23887621" version="1" timestamp="1970-01-01T00:00:00Z" uid="0" user="" lat="50.6964265" lon="12.7352149"/>
  <node id="23887624" version="1" timestamp="1970-01-01T00:00:00Z" uid="0" user="" lat="50.6965415" lon="12.7351475"/>
  <node id="23887628" version="1" timestamp="1970-01-01T00:00:00Z" uid="0" user="" lat="50.7295624" lon="12.7792282"/>
  <node id="30471101" version="1" timestamp="1970-01-01T00:00:00Z" uid="0" user="" lat="50.6946969" lon="12.7283037"/>
  <node id="30471107" version="1" timestamp="1970-01-01T00:00:00Z" uid="0" user="" lat="50.6946063" lon="12.7283931"/>
  <node id="32047853" version="1" timestamp="1970-01-01T00:00:00Z" uid="0" user="" lat="50.7281359" lon="12.7787818"/>
  <node id="32047912" version="1" timestamp="1970-01-01T00:00:00Z" uid="0" user="" lat="50.7292845" lon="12.7793519">
    <tag k="ref" v="14"/>
    <tag k="name" v="Stollberg-Nord"/>
    <tag k="highway" v="motorway_junction"/>
    <tag k="TMC:cid_58:tabcd_1:Class" v="Point"/>
    <tag k="TMC:cid_58:tabcd_1:Direction" v="positive"/>
    <tag k="TMC:cid_58:tabcd_1:LCLversion" v="9.00"/>
    <tag k="TMC:cid_58:tabcd_1:LocationCode" v="42635"/>
    <tag k="TMC:cid_58:tabcd_1:NextLocationCode" v="51582"/>
    <tag k="TMC:cid_58:tabcd_1:PrevLocationCode" v="12447"/>
  </node>
  <node id="95023990" version="1" timestamp="1970-01-01T00:00:00Z" uid="0" user="" lat="50.7013368" lon="12.7487688"/>
  <node id="97681249" version="1" timestamp="1970-01-01T00:00:00Z" uid="0" user="" lat="50.7031027" lon="12.7512638">
    <tag k="ref" v="13"/>
    <tag k="name" v="Stollberg-West"/>
    <tag k="highway" v="motorway_junction"/>
    <tag k="TMC:cid_58:tabcd_1:Class" v="Point"/>
    <tag k="TMC:cid_58:tabcd_1:Direction" v="negative"/>
    <tag k="TMC:cid_58:tabcd_1:LCLversion" v="9.00"/>
    <tag k="TMC:cid_58:tabcd_1:LocationCode" v="12447"/>
    <tag k="TMC:cid_58:tabcd_1:NextLocationCode" v="42635"/>
    <tag k="TMC:cid_58:tabcd_1:PrevLocationCode" v="52370"/>
  </node>
  <node id="160510303" version="1" timestamp="1970-01-01T00:00:00Z" uid="0" user="" lat="50.6913983" lon="12.7120491">
    <tag k="highway" v="milestone"/>
    <tag k="distance" v="84.0"/>
  </node>
  <node id="160513498" version="1" timestamp="1970-01-01T00:00:00Z" uid="0" user="" lat="50.6912801" lon="12.7120508">
    <tag k="highway" v="milestone"/>
    <tag k="distance" v="84.0"/>
  </node>
  <node id="160513501" version="1" timestamp="1970-01-01T00:00:00Z" uid="0" user="" lat="50.6915896" lon="12.7154049"/>
  <node id="160513503" version="1" timestamp="1970-01-01T00:00:00Z" uid="0" user="" lat="50.6945578" lon="12.7282015"/>
  <node id="181872863" version="1" timestamp="1970-01-01T00:00:00Z" uid="0" user="" lat="50.7312907" lon="12.7797677"/>
  <node id="186903961" version="1" timestamp="1970-01-01T00:00:00Z" uid="0" user="" lat="50.7070954" lon="12.7561194"/>
  <node id="186903965" version="1" timestamp="1970-01-01T00:00:00Z" uid="0" user="" lat="50.7091988" lon="12.7573054"/>
  <node id="186903973" version="1" timestamp="1970-01-01T00:00:00Z" uid="0" user="" lat="50.7093157" lon="12.757145"/>
  <node id="197993441" version="1" timestamp="1970-01-01T00:00:00Z" uid="0" user="" lat="50.6885847" lon="12.606619"/>
  <node id="197993446" version="1" timestamp="1970-01-01T00:00:00Z" uid="0" user="" lat="50.6886918" lon="12.6067398"/>
  <node id="204095109" version="1" timestamp="1970-01-01T00:00:00Z" uid="0" user="" lat="50.6824574" lon="12.6453232"/>
  <node id="204095114" version="1" timestamp="1970-01-01T00:00:00Z" uid="0" user="" lat="50.6823379" lon="12.6453781"/>
  <node id="204095116" version="1" timestamp="1970-01-01T00:00:00Z" uid="0" user="" lat="50.6907665" lon="12.6732079"/>
  <node id="204095122" version="1" timestamp="1970-01-01T00:00:00Z" uid="0" user="" lat="50.6908737" lon="12.6732513"/>
  <node id="204097947" version="1" timestamp="1970-01-01T00:00:00Z" uid="0" user="" lat="50.6912735" lon="12.7073729"/>
  <node id="204097955" version="1" timestamp="1970-01-01T00:00:00Z" uid="0" user="" lat="50.6913388" lon="12.7099764"/>
  <node id="204100436" version="1" timestamp="1970-01-01T00:00:00Z" uid="0" user="" lat="50.6926004" lon="12.7201483"/>
  <node id="204100437" version="1" timestamp="1970-01-01T00:00:00Z" uid="0" user="" lat="50.6924556" lon="12.7200495"/>
  <node id="204102793" version="1" timestamp="1970-01-01T00:00:00Z" uid="0" user="" lat="50.7004904" lon="12.747026"/>
  <node id="204102794" version="1" timestamp="1970-01-01T00:00:00Z" uid="0" user="" lat="50.7003319" lon="12.746985"/>
  <node id="204102795" version="1" timestamp="1970-01-01T00:00:00Z" uid="0" user="" lat="50.7057515" lon="12.7548205"/>
  <node id="204102796" version="1" timestamp="1970-01-01T00:00:00Z" uid="0" user="" lat="50.7059162" lon="12.7547945"/>
  <node id="204102797" version="1" timestamp="1970-01-01T00:00:00Z" uid="0" user="" lat="50.7082568" lon="12.7566842"/>
  <node id="204102798" version="1" timestamp="1970-01-01T00:00:00Z" uid="0" user="" lat="50.7082348" lon="12.7568688"/>
  <node id="204102799" version="1" timestamp="1970-01-01T00:00:00Z" uid="0" user="" lat="50.7106639" lon="12.7578368"/>
  <node id="204102800" version="1" timestamp="1970-01-01T00:00:00Z" uid="0" user="" lat="50.7106987" lon="12.757591"/>
  <node id="204107925" version="1" timestamp="1970-01-01T00:00:00Z" uid="0" user="" lat="50.7179864" lon="12.7647303">
    <tag k="traffic_sign" v="DE:278"/>
  </node>
  <node id="204107926" version="1" timestamp="1970-01-01T00:00:00Z" uid="0" user="" lat="50.719175" lon="12.7665474"/>
  <node id="204107929" version="1" timestamp="1970-01-01T00:00:00Z" uid="0" user="" lat="50.7234114" lon="12.7736807"/>
  <node id="204107933" version="1" timestamp="1970-01-01T00:00:00Z" uid="0" user="" lat="50.7233141" lon="12.7738077"/>
  <node id="204107939" version="1" timestamp="1970-01-01T00:00:00Z" uid="0" user="" lat="50.7289044" lon="12.7792507"/>
  <node id="204107941" version="1" timestamp="1970-01-01T00:00:00Z" uid="0" user="" lat="50.7313272" lon="12.7795893"/>
  <node id="204107944" version="1" timestamp="1970-01-01T00:00:00Z" uid="0" user="" lat="50.73522" lon="12.7808219"/>
  <node id="204107950" version="1" timestamp="1970-01-01T00:00:00Z" uid="0" user="" lat="50.7352864" lon="12.7806501"/>
  <node id="204107954" version="1" timestamp="1970-01-01T00:00:00Z" uid="0" user="" lat="50.7398683" lon="12.7835482"/>
  <node id="204107960" version="1" timestamp="1970-01-01T00:00:00Z" uid="0" user="" lat="50.7398052" lon="12.7837028"/>
  <node id="237758112" version="1" timestamp="1970-01-01T00:00:00Z" uid="0" user="" lat="50.7574613" lon="12.805498"/>
  <node id="237760796" version="1" timestamp="1970-01-01T00:00:00Z" uid="0" user="" lat="50.7299926" lon="12.779325">
    <tag k="ref" v="14"/>
    <tag k="name" v="Stollberg-Nord"/>
    <tag k="highway" v="motorway_junction"/>
    <tag k="TMC:cid_58:tabcd_1:Class" v="Point"/>
    <tag k="TMC:cid_58:tabcd_1:Direction" v="negative"/>
    <tag k="TMC:cid_58:tabcd_1:LCLversion" v="9.00"/>
    <tag k="TMC:cid_58:tabcd_1:LocationCode" v="42635"/>
    <tag k="TMC:cid_58:tabcd_1:NextLocationCode" v="51582"/>
    <tag k="TMC:cid_58:tabcd_1:PrevLocationCode" v="12447"/>
  </node>
  <node id="246681988" version="1" timestamp="1970-01-01T00:00:00Z" uid="0" user="" lat="50.6962125" lon="12.734502"/>
  <node id="246682174" version="1" timestamp="1970-01-01T00:00:00Z" uid="0" user="" lat="50.7041625" lon="12.7526074"/>
  <node id="246682195" version="1" timestamp="1970-01-01T00:00:00Z" uid="0" user="" lat="50.7041844" lon="12.7528697"/>
  <node id="246682953" version="1" timestamp="1970-01-01T00:00:00Z" uid="0" user="" lat="50.7279465" lon="12.7788877"/>
  <node id="246682969" version="1" timestamp="1970-01-01T00:00:00Z" uid="0" user="" lat="50.7279801" lon="12.7787109"/>
  <node id="246683662" version="1" timestamp="1970-01-01T00:00:00Z" uid="0" user="" lat="50.7574023" lon="12.8056805"/>
  <node id="247089305" version="1" timestamp="1970-01-01T00:00:00Z" uid="0" user="" lat="50.691677" lon="12.6985612"/>
  <node id="247089326" version="1" timestamp="1970-01-01T00:00:00Z" uid="0" user="" lat="50.6915431" lon="12.6991285">
    <tag k="ref" v="12"/>
    <tag k="name" v="Hartenstein"/>
    <tag k="highway" v="motorway_junction"/>
    <tag k="TMC:cid_58:tabcd_1:Class" v="Point"/>
    <tag k="TMC:cid_58:tabcd_1:Direction" v="positive"/>
    <tag k="TMC:cid_58:tabcd_1:LCLversion" v="9.00"/>
    <tag k="TMC:cid_58:tabcd_1:LocationCode" v="12446"/>
    <tag k="TMC:cid_58:tabcd_1:NextLocationCode" v="52370"/>
    <tag k="TMC:cid_58:tabcd_1:PrevLocationCode" v="12444"/>
  </node>
  <node id="247089328" version="1" timestamp="1970-01-01T00:00:00Z" uid="0" user="" lat="50.6915616" lon="12.6985755"/>
  <node id="255434133" version="1" timestamp="1970-01-01T00:00:00Z" uid="0" user="" lat="50.6895318" lon="12.6808479"/>
  <node id="255434135" version="1" timestamp="1970-01-01T00:00:00Z" uid="0" user="" lat="50.6893837" lon="12.6830429"/>
  <node id="261680431" version="1" timestamp="1970-01-01T00:00:00Z" uid="0" user="" lat="50.6958961" lon="12.7332602"/>
  <node id="261680432" version="1" timestamp="1970-01-01T00:00:00Z" uid="0" user="" lat="50.6957957" lon="12.7329178"/>
  <node id="261680433" version="1" timestamp="1970-01-01T00:00:00Z" uid="0" user="" lat="50.6958775" lon="12.7327486"/>
  <node id="261680434" version="1" timestamp="1970-01-01T00:00:00Z" uid="0" user="" lat="50.6959611" lon="12.7330593"/>
  <node id="296339398" version="1" timestamp="1970-01-01T00:00:00Z" uid="0" user="" lat="50.690826" lon="12.6678601"/>
  <node id="296339415" version="1" timestamp="1970-01-01T00:00:00Z" uid="0" user="" lat="50.6907106" lon="12.667871"/>
  <node id="296339435" version="1" timestamp="1970-01-01T00:00:00Z" uid="0" user="" lat="50.6910226" lon="12.6714298"/>
  <node id="296339460" version="1" timestamp="1970-01-01T00:00:00Z" uid="0" user="" lat="50.690908" lon="12.6714234"/>
  <node id="321580992" version="1" timestamp="1970-01-01T00:00:00Z" uid="0" user="" lat="50.6930058" lon="12.7221848">
    <tag k="name" v="Rastplatz Beuthenbach"/>
    <tag k="TMC:cid_58:tabcd_1:Class" v="Point"/>
    <tag k="TMC:cid_58:tabcd_1:Direction" v="positive"/>
    <tag k="TMC:cid_58:tabcd_1:LCLversion" v="9.00"/>
    <tag k="TMC:cid_58:tabcd_1:LocationCode" v="52370"/>
    <tag k="TMC:cid_58:tabcd_1:NextLocationCode" v="12447"/>
    <tag k="TMC:cid_58:tabcd_1:PrevLocationCode" v="12446"/>
  </node>
  <node id="369318559" version="1" timestamp="1970-01-01T00:00:00Z" uid="0" user="" lat="50.6836335" lon="12.6486564"/>
  <node id="369318563" version="1" timestamp="1970-01-01T00:00:00Z" uid="0" user="" lat="50.6838178" lon="12.64902"/>
  <node id="369318565" version="1" timestamp="1970-01-01T00:00:00Z" uid="0" user="" lat="50.6835351" lon="12.6488051"/>
  <node id="369318567" version="1" timestamp="1970-01-01T00:00:00Z" uid="0" user="" lat="50.6837159" lon="12.6491616"/>
  <node id="369318571" version="1" timestamp="1970-01-01T00:00:00Z" uid="0" user="" lat="50.6820844" lon="12.6409801"/>
  <node id="369318575" version="1" timestamp="1970-01-01T00:00:00Z" uid="0" user="" lat="50.682077" lon="12.6413734"/>
  <node id="369318578" version="1" timestamp="1970-01-01T00:00:00Z" uid="0" user="" lat="50.6819854" lon="12.6409801"/>
  <node id="369318582" version="1" timestamp="1970-01-01T00:00:00Z" uid="0" user="" lat="50.6819817" lon="12.6413882"/>
  <node id="369318587" version="1" timestamp="1970-01-01T00:00:00Z" uid="0" user="" lat="50.6913873" lon="12.7079425"/>
  <node id="369318591" version="1" timestamp="1970-01-01T00:00:00Z" uid="0" user="" lat="50.6913695" lon="12.7083757"/>
  <node id="369318594" version="1" timestamp="1970-01-01T00:00:00Z" uid="0" user="" lat="50.6912559" lon="12.7078385"/>
  <node id="369318597" version="1" timestamp="1970-01-01T00:00:00Z" uid="0" user="" lat="50.691251" lon="12.7083252"/>
  <node id="373915094" version="1" timestamp="1970-01-01T00:00:00Z" uid="0" user="" lat="50.6880616" lon="12.6111986"/>
  <node id="373915122" version="1" timestamp="1970-01-01T00:00:00Z" uid="0" user="" lat="50.6879479" lon="12.6111505"/>
  <node id="373915135" version="1" timestamp="1970-01-01T00:00:00Z" uid="0" user="" lat="50.6877299" lon="12.61228"/>
  <node id="373915227" version="1" timestamp="1970-01-01T00:00:00Z" uid="0" user="" lat="50.687614" lon="12.6122294"/>
  <node id="373915259" version="1" timestamp="1970-01-01T00:00:00Z" uid="0" user="" lat="50.6872769" lon="12.6135855"/>
  <node id="373915373" version="1" timestamp="1970-01-01T00:00:00Z" uid="0" user="" lat="50.6871736" lon="12.6134825"/>
  <node id="373915476" version="1" timestamp="1970-01-01T00:00:00Z" uid="0" user="" lat="50.6867527" lon="12.6149425"/>
  <node id="373915566" version="1" timestamp="1970-01-01T00:00:00Z" uid="0" user="" lat="50.6862763" lon="12.6159115"/>
  <node id="373915569" version="1" timestamp="1970-01-01T00:00:00Z" uid="0" user="" lat="50.6858957" lon="12.6171389"/>
  <node id="373915620" version="1" timestamp="1970-01-01T00:00:00Z" uid="0" user="" lat="50.6859832" lon="12.6171998"/>
  <node id="373915771" version="1" timestamp="1970-01-01T00:00:00Z" uid="0" user="" lat="50.6853329" lon="12.6194211"/>
  <node id="373915928" version="1" timestamp="1970-01-01T00:00:00Z" uid="0" user="" lat="50.6846014" lon="12.6234131"/>
  <node id="373915929" version="1" timestamp="1970-01-01T00:00:00Z" uid="0" user="" lat="50.6854443" lon="12.6194563"/>
  <node id="373916072" version="1" timestamp="1970-01-01T00:00:00Z" uid="0" user="" lat="50.6844927" lon="12.6233616"/>
  <node id="373916261" version="1" timestamp="1970-01-01T00:00:00Z" uid="0" user="" lat="50.6884966" lon="12.6089953"/>
  <node id="373916289" version="1" timestamp="1970-01-01T00:00:00Z" uid="0" user="" lat="50.6883971" lon="12.6089335"/>
  <node id="373916314" version="1" timestamp="1970-01-01T00:00:00Z" uid="0" user="" lat="50.6886201" lon="12.6080048"/>
  <node id="373916361" version="1" timestamp="1970-01-01T00:00:00Z" uid="0" user="" lat="50.6885113" lon="12.6080065"/>
  <node id="408411026" version="1" timestamp="1970-01-01T00:00:00Z" uid="0" user="" lat="50.6932428" lon="12.7226374"/>
  <node id="565503778" version="1" timestamp="1970-01-01T00:00:00Z" uid="0" user="" lat="50.7217313" lon="12.7706698"/>
  <node id="565503779" version="1" timestamp="1970-01-01T00:00:00Z" uid="0" user="" lat="50.7216579" lon="12.7708118">
    <tag k="traffic_sign" v="DE:278"/>
  </node>
  <node id="621988423" version="1" timestamp="1970-01-01T00:00:00Z" uid="0" user="" lat="50.7177574" lon="12.7646783"/>
  <node id="996577312" version="1" timestamp="1970-01-01T00:00:00Z" uid="0" user="" lat="50.7066055" lon="12.7554895"/>
  <node id="1106006688" version="1" timestamp="1970-01-01T00:00:00Z" uid="0" user="" lat="50.7133581" lon="12.759297"/>
  <node id="1138832662" version="1" timestamp="1970-01-01T00:00:00Z" uid="0" user="" lat="50.7252404" lon="12.7767261"/>
  <node id="1138832676" version="1" timestamp="1970-01-01T00:00:00Z" uid="0" user="" lat="50.7254767" lon="12.7770067"/>
  <node id="1213091279" version="1" timestamp="1970-01-01T00:00:00Z" uid="0" user="" lat="50.7484459" lon="12.7962126"/>
  <node id="1213091281" version="1" timestamp="1970-01-01T00:00:00Z" uid="0" user="" lat="50.747673" lon="12.7951743"/>
  <node id="1213091292" version="1" timestamp="1970-01-01T00:00:00Z" uid="0" user="" lat="50.7485296" lon="12.7960853"/>
  <node id="1213091313" version="1" timestamp="1970-01-01T00:00:00Z" uid="0" user="" lat="50.7561031" lon="12.8042539"/>
  <node id="1213091334" version="1" timestamp="1970-01-01T00:00:00Z" uid="0" user="" lat="50.74567" lon="12.7916779"/>
  <node id="1213091343" version="1" timestamp="1970-01-01T00:00:00Z" uid="0" user="" lat="50.7477664" lon="12.7950267"/>
  <node id="1213091345" version="1" timestamp="1970-01-01T00:00:00Z" uid="0" user="" lat="50.7457763" lon="12.7915252"/>
  <node id="1213091390" version="1" timestamp="1970-01-01T00:00:00Z" uid="0" user="" lat="50.7559846" lon="12.8043684"/>
  <node id="1296357478" version="1" timestamp="1970-01-01T00:00:00Z" uid="0" user="" lat="50.7078087" lon="12.7566146"/>
  <node id="1296357496" version="1" timestamp="1970-01-01T00:00:00Z" uid="0" user="" lat="50.7065364" lon="12.7556332"/>
  <node id="1701047437" version="1" timestamp="1970-01-01T00:00:00Z" uid="0" user="" lat="50.6900107" lon="12.6607149"/>
  <node id="1701047448" version="1" timestamp="1970-01-01T00:00:00Z" uid="0" user="" lat="50.690098" lon="12.6615495"/>
  <node id="1701047450" version="1" timestamp="1970-01-01T00:00:00Z" uid="0" user="" lat="50.6901191" lon="12.6606739"/>
  <node id="1701047452" version="1" timestamp="1970-01-01T00:00:00Z" uid="0" user="" lat="50.6908696" lon="12.6721338"/>
  <node id="1701047454" version="1" timestamp="1970-01-01T00:00:00Z" uid="0" user="" lat="50.6909816" lon="12.6721835"/>
  <node id="1731178131" version="1" timestamp="1970-01-01T00:00:00Z" uid="0" user="" lat="50.6831665" lon="12.6479785"/>
  <node id="1731178132" version="1" timestamp="1970-01-01T00:00:00Z" uid="0" user="" lat="50.6832584" lon="12.6478725"/>
  <node id="1731178133" version="1" timestamp="1970-01-01T00:00:00Z" uid="0" user="" lat="50.6893665" lon="12.6818995"/>
  <node id="1731178134" version="1" timestamp="1970-01-01T00:00:00Z" uid="0" user="" lat="50.6894786" lon="12.6818919"/>
  <node id="1731178135" version="1" timestamp="1970-01-01T00:00:00Z" uid="0" user="" lat="50.6895595" lon="12.6849757"/>
  <node id="1731178136" version="1" timestamp="1970-01-01T00:00:00Z" uid="0" user="" lat="50.6896832" lon="12.6850107"/>
  <node id="1731178141" version="1" timestamp="1970-01-01T00:00:00Z" uid="0" user="" lat="50.6908295" lon="12.6691511"/>
  <node id="1731178142" version="1" timestamp="1970-01-01T00:00:00Z" uid="0" user="" lat="50.6909301" lon="12.6689997"/>
  <node id="1731178145" version="1" timestamp="1970-01-01T00:00:00Z" uid="0" user="" lat="50.6915091" lon="12.6943328"/>
  <node id="1731178146" version="1" timestamp="1970-01-01T00:00:00Z" uid="0" user="" lat="50.6916117" lon="12.6943103"/>
  <node id="1731178147" version="1" timestamp="1970-01-01T00:00:00Z" uid="0" user="" lat="50.6919802" lon="12.7178879"/>
  <node id="1731178148" version="1" timestamp="1970-01-01T00:00:00Z" uid="0" user="" lat="50.6920824" lon="12.7178109"/>
  <node id="1871246634" version="1" timestamp="1970-01-01T00:00:00Z" uid="0" user="" lat="50.7521849" lon="12.8003231"/>
  <node id="1914196316" version="1" timestamp="1970-01-01T00:00:00Z" uid="0" user="" lat="50.6819862" lon="12.6424947"/>
  <node id="1914196317" version="1" timestamp="1970-01-01T00:00:00Z" uid="0" user="" lat="50.6820084" lon="12.6430622"/>
  <node id="1914196318" version="1" timestamp="1970-01-01T00:00:00Z" uid="0" user="" lat="50.6820913" lon="12.6424801"/>
  <node id="1914196319" version="1" timestamp="1970-01-01T00:00:00Z" uid="0" user="" lat="50.682104" lon="12.637194"/>
  <node id="1914196320" version="1" timestamp="1970-01-01T00:00:00Z" uid="0" user="" lat="50.6821227" lon="12.643036"/>
  <node id="1914196322" version="1" timestamp="1970-01-01T00:00:00Z" uid="0" user="" lat="50.6821443" lon="12.6356522"/>
  <node id="1914196323" version="1" timestamp="1970-01-01T00:00:00Z" uid="0" user="" lat="50.6821712" lon="12.6349755"/>
  <node id="1914196324" version="1" timestamp="1970-01-01T00:00:00Z" uid="0" user="" lat="50.6821891" lon="12.6445028"/>
  <node id="1914196325" version="1" timestamp="1970-01-01T00:00:00Z" uid="0" user="" lat="50.6822133" lon="12.6371913"/>
  <node id="1914196326" version="1" timestamp="1970-01-01T00:00:00Z" uid="0" user="" lat="50.6822603" lon="12.6356389"/>
  <node id="1914196327" version="1" timestamp="1970-01-01T00:00:00Z" uid="0" user="" lat="50.6822822" lon="12.6349755"/>
  <node id="1914196328" version="1" timestamp="1970-01-01T00:00:00Z" uid="0" user="" lat="50.6822942" lon="12.6444563"/>
  <node id="1914196330" version="1" timestamp="1970-01-01T00:00:00Z" uid="0" user="" lat="50.6823696" lon="12.6331896"/>
  <node id="1914196332" version="1" timestamp="1970-01-01T00:00:00Z" uid="0" user="" lat="50.6824873" lon="12.6331869"/>
  <node id="1914196333" version="1" timestamp="1970-01-01T00:00:00Z" uid="0" user="" lat="50.6825523" lon="12.646185"/>
  <node id="1914196334" version="1" timestamp="1970-01-01T00:00:00Z" uid="0" user="" lat="50.6826575" lon="12.6461414"/>
  <node id="1914196335" version="1" timestamp="1970-01-01T00:00:00Z" uid="0" user="" lat="50.6829728" lon="12.6475005"/>
  <node id="1914196336" version="1" timestamp="1970-01-01T00:00:00Z" uid="0" user="" lat="50.683065" lon="12.6474132"/>
  <node id="1914196352" version="1" timestamp="1970-01-01T00:00:00Z" uid="0" user="" lat="50.6869412" lon="12.6533229"/>
  <node id="1914196353" version="1" timestamp="1970-01-01T00:00:00Z" uid="0" user="" lat="50.6870149" lon="12.6532113"/>
  <node id="1914196356" version="1" timestamp="1970-01-01T00:00:00Z" uid="0" user="" lat="50.6875751" lon="12.6540804"/>
  <node id="1914196357" version="1" timestamp="1970-01-01T00:00:00Z" uid="0" user="" lat="50.6876538" lon="12.6539826"/>
  <node id="1914196360" version="1" timestamp="1970-01-01T00:00:00Z" uid="0" user="" lat="50.6885593" lon="12.6073168"/>
  <node id="1914196362" version="1" timestamp="1970-01-01T00:00:00Z" uid="0" user="" lat="50.6886685" lon="12.6073786"/>
  <node id="1914196364" version="1" timestamp="1970-01-01T00:00:00Z" uid="0" user="" lat="50.6886881" lon="12.6559454"/>
  <node id="1914196365" version="1" timestamp="1970-01-01T00:00:00Z" uid="0" user="" lat="50.6887908" lon="12.6558404"/>
  <node id="1914196367" version="1" timestamp="1970-01-01T00:00:00Z" uid="0" user="" lat="50.6889239" lon="12.6564676"/>
  <node id="1914196368" version="1" timestamp="1970-01-01T00:00:00Z" uid="0" user="" lat="50.6890418" lon="12.6563686"/>
  <node id="1914196369" version="1" timestamp="1970-01-01T00:00:00Z" uid="0" user="" lat="50.6893479" lon="12.6575781"/>
  <node id="1914196371" version="1" timestamp="1970-01-01T00:00:00Z" uid="0" user="" lat="50.6894658" lon="12.657524"/>
  <node id="1914196372" version="1" timestamp="1970-01-01T00:00:00Z" uid="0" user="" lat="50.6895687" lon="12.6583042"/>
  <node id="1914196373" version="1" timestamp="1970-01-01T00:00:00Z" uid="0" user="" lat="50.6896807" lon="12.658283"/>
  <node id="1914196374" version="1" timestamp="1970-01-01T00:00:00Z" uid="0" user="" lat="50.6901473" lon="12.6764338"/>
  <node id="1914196375" version="1" timestamp="1970-01-01T00:00:00Z" uid="0" user="" lat="50.6902374" lon="12.6629207"/>
  <node id="1914196376" version="1" timestamp="1970-01-01T00:00:00Z" uid="0" user="" lat="50.6903569" lon="12.6628932"/>
  <node id="1914196377" version="1" timestamp="1970-01-01T00:00:00Z" uid="0" user="" lat="50.6902506" lon="12.6764939"/>
  <node id="1959021331" version="1" timestamp="1970-01-01T00:00:00Z" uid="0" user="" lat="50.7021599" lon="12.7502931"/>
  <node id="1959068483" version="1" timestamp="1970-01-01T00:00:00Z" uid="0" user="" lat="50.7174725" lon="12.7642974">
    <tag k="highway" v="milestone"/>
    <tag k="distance" v="89.0"/>
  </node>
  <node id="1959192284" version="1" timestamp="1970-01-01T00:00:00Z" uid="0" user="" lat="50.7240539" lon="12.7750971">
    <tag k="highway" v="milestone"/>
    <tag k="distance" v="90.0"/>
  </node>
  <node id="1998869666" version="1" timestamp="1970-01-01T00:00:00Z" uid="0" user="" lat="50.6915933" lon="12.701015"/>
  <node id="2064926368" version="1" timestamp="1970-01-01T00:00:00Z" uid="0" user="" lat="50.72611" lon="12.7774158"/>
  <node id="2064926369" version="1" timestamp="1970-01-01T00:00:00Z" uid="0" user="" lat="50.7270605" lon="12.7781751"/>
  <node id="2064926370" version="1" timestamp="1970-01-01T00:00:00Z" uid="0" user="" lat="50.7289442" lon="12.7790768"/>
  <node id="2064926371" version="1" timestamp="1970-01-01T00:00:00Z" uid="0" user="" lat="50.7365013" lon="12.7814215"/>
  <node id="2064926372" version="1" timestamp="1970-01-01T00:00:00Z" uid="0" user="" lat="50.736567" lon="12.7812474"/>
  <node id="2064926373" version="1" timestamp="1970-01-01T00:00:00Z" uid="0" user="" lat="50.738741" lon="12.7828334"/>
  <node id="2064926374" version="1" timestamp="1970-01-01T00:00:00Z" uid="0" user="" lat="50.7387926" lon="12.7826666"/>
  <node id="2064926375" version="1" timestamp="1970-01-01T00:00:00Z" uid="0" user="" lat="50.7408039" lon="12.7846417"/>
  <node id="2064926376" version="1" timestamp="1970-01-01T00:00:00Z" uid="0" user="" lat="50.7408894" lon="12.7845032"/>
  <node id="2064926377" version="1" timestamp="1970-01-01T00:00:00Z" uid="0" user="" lat="50.7425259" lon="12.786593"/>
  <node id="2064926378" version="1" timestamp="1970-01-01T00:00:00Z" uid="0" user="" lat="50.7425985" lon="12.7864613"/>
  <node id="2064926379" version="1" timestamp="1970-01-01T00:00:00Z" uid="0" user="" lat="50.7435218" lon="12.7879541"/>
  <node id="2064926380" version="1" timestamp="1970-01-01T00:00:00Z" uid="0" user="" lat="50.7435944" lon="12.7878122"/>
  <node id="2064926381" version="1" timestamp="1970-01-01T00:00:00Z" uid="0" user="" lat="50.7450818" lon="12.7904938"/>
  <node id="2064926382" version="1" timestamp="1970-01-01T00:00:00Z" uid="0" user="" lat="50.7451502" lon="12.7903688"/>
  <node id="2064962780" version="1" timestamp="1970-01-01T00:00:00Z" uid="0" user="" lat="50.7134463" lon="12.7591598"/>
  <node id="2064962782" version="1" timestamp="1970-01-01T00:00:00Z" uid="0" user="" lat="50.7147596" lon="12.7607225"/>
  <node id="2064962784" version="1" timestamp="1970-01-01T00:00:00Z" uid="0" user="" lat="50.7148063" lon="12.7605522"/>
  <node id="2064962786" version="1" timestamp="1970-01-01T00:00:00Z" uid="0" user="" lat="50.7164363" lon="12.7629233"/>
  <node id="2064962788" version="1" timestamp="1970-01-01T00:00:00Z" uid="0" user="" lat="50.716496" lon="12.7627571"/>
  <node id="2064962789" version="1" timestamp="1970-01-01T00:00:00Z" uid="0" user="" lat="50.7175584" lon="12.7641237">
    <tag k="highway" v="milestone"/>
    <tag k="distance" v="89.0"/>
  </node>
  <node id="2064962792" version="1" timestamp="1970-01-01T00:00:00Z" uid="0" user="" lat="50.7185786" lon="12.765755"/>
  <node id="2064962793" version="1" timestamp="1970-01-01T00:00:00Z" uid="0" user="" lat="50.7193549" lon="12.7665777"/>
  <node id="2064962795" version="1" timestamp="1970-01-01T00:00:00Z" uid="0" user="" lat="50.7198068" lon="12.76752"/>
  <node id="2064962797" version="1" timestamp="1970-01-01T00:00:00Z" uid="0" user="" lat="50.7198835" lon="12.7673858"/>
  <node id="2064962798" version="1" timestamp="1970-01-01T00:00:00Z" uid="0" user="" lat="50.7241531" lon="12.7750029">
    <tag k="highway" v="milestone"/>
    <tag k="distance" v="90.0"/>
  </node>
  <node id="2064962806" version="1" timestamp="1970-01-01T00:00:00Z" uid="0" user="" lat="50.725524" lon="12.7768467"/>
  <node id="2064984169" version="1" timestamp="1970-01-01T00:00:00Z" uid="0" user="" lat="50.691418" lon="12.713931"/>
  <node id="2064984172" version="1" timestamp="1970-01-01T00:00:00Z" uid="0" user="" lat="50.6915343" lon="12.7139027"/>
  <node id="2064984174" version="1" timestamp="1970-01-01T00:00:00Z" uid="0" user="" lat="50.69176" lon="12.7166318"/>
  <node id="2064984176" version="1" timestamp="1970-01-01T00:00:00Z" uid="0" user="" lat="50.6918827" lon="12.71656"/>
  <node id="2064984185" version="1" timestamp="1970-01-01T00:00:00Z" uid="0" user="" lat="50.7009157" lon="12.7482614"/>
  <node id="2064984187" version="1" timestamp="1970-01-01T00:00:00Z" uid="0" user="" lat="50.701815" lon="12.749813"/>
  <node id="2064984189" version="1" timestamp="1970-01-01T00:00:00Z" uid="0" user="" lat="50.7019099" lon="12.7496992"/>
  <node id="2065067486" version="1" timestamp="1970-01-01T00:00:00Z" uid="0" user="" lat="50.6894633" lon="12.6842083"/>
  <node id="2065067490" version="1" timestamp="1970-01-01T00:00:00Z" uid="0" user="" lat="50.6894931" lon="12.6799919"/>
  <node id="2065067494" version="1" timestamp="1970-01-01T00:00:00Z" uid="0" user="" lat="50.68957" lon="12.684139"/>
  <node id="2065067498" version="1" timestamp="1970-01-01T00:00:00Z" uid="0" user="" lat="50.6896076" lon="12.6800216"/>
  <node id="2065067501" version="1" timestamp="1970-01-01T00:00:00Z" uid="0" user="" lat="50.690201" lon="12.6615055"/>
  <node id="2065067506" version="1" timestamp="1970-01-01T00:00:00Z" uid="0" user="" lat="50.6905943" lon="12.6742181"/>
  <node id="2065067509" version="1" timestamp="1970-01-01T00:00:00Z" uid="0" user="" lat="50.6906986" lon="12.6742707"/>
  <node id="2065067512" version="1" timestamp="1970-01-01T00:00:00Z" uid="0" user="" lat="50.6908849" lon="12.6698904"/>
  <node id="2065067516" version="1" timestamp="1970-01-01T00:00:00Z" uid="0" user="" lat="50.6909936" lon="12.6698904"/>
  <node id="2081261986" version="1" timestamp="1970-01-01T00:00:00Z" uid="0" user="" lat="50.6917126" lon="12.6970483"/>
  <node id="2128680897" version="1" timestamp="1970-01-01T00:00:00Z" uid="0" user="" lat="50.6915668" lon="12.6950761"/>
  <node id="2128683418" version="1" timestamp="1970-01-01T00:00:00Z" uid="0" user="" lat="50.6947466" lon="12.7289375"/>
  <node id="2194651885" version="1" timestamp="1970-01-01T00:00:00Z" uid="0" user="" lat="50.7248381" lon="12.776261"/>
  <node id="2342205455" version="1" timestamp="1970-01-01T00:00:00Z" uid="0" user="" lat="50.6913225" lon="12.705855"/>
  <node id="2465148179" version="1" timestamp="1970-01-01T00:00:00Z" uid="0" user="" lat="50.6901238" lon="12.6877218"/>
  <node id="2784247794" version="1" timestamp="1970-01-01T00:00:00Z" uid="0" user="" lat="50.7318764" lon="12.7797064"/>
  <node id="2784247798" version="1" timestamp="1970-01-01T00:00:00Z" uid="0" user="" lat="50.7327287" lon="12.7800595"/>
  <node id="3132028776" version="1" timestamp="1970-01-01T00:00:00Z" uid="0" user="" lat="50.70536" lon="12.7543434"/>
  <node id="3132028779" version="1" timestamp="1970-01-01T00:00:00Z" uid="0" user="" lat="50.7060211" lon="12.7551152"/>
  <node id="3132028781" version="1" timestamp="1970-01-01T00:00:00Z" uid="0" user="" lat="50.7063235" lon="12.7552181"/>
  <node id="3132028785" version="1" timestamp="1970-01-01T00:00:00Z" uid="0" user="" lat="50.7049021" lon="12.7537713">
    <tag k="ref" v="13"/>
    <tag k="name" v="Stollberg-West"/>
    <tag k="highway" v="motorway_junction"/>
    <tag k="TMC:cid_58:tabcd_1:Class" v="Point"/>
    <tag k="TMC:cid_58:tabcd_1:Direction" v="positive"/>
    <tag k="TMC:cid_58:tabcd_1:LCLversion" v="9.00"/>
    <tag k="TMC:cid_58:tabcd_1:LocationCode" v="12447"/>
    <tag k="TMC:cid_58:tabcd_1:NextLocationCode" v="42635"/>
    <tag k="TMC:cid_58:tabcd_1:PrevLocationCode" v="52370"/>
  </node>
  <node id="3132028797" version="1" timestamp="1970-01-01T00:00:00Z" uid="0" user="" lat="50.707439" lon="12.7563697"/>
  <node id="3132028801" version="1" timestamp="1970-01-01T00:00:00Z" uid="0" user="" lat="50.7047348" lon="12.7535628"/>
  <node id="3137598571" version="1" timestamp="1970-01-01T00:00:00Z" uid="0" user="" lat="50.6943399" lon="12.7273867"/>
  <node id="3185059835" version="1" timestamp="1970-01-01T00:00:00Z" uid="0" user="" lat="50.6820206" lon="12.6396313"/>
  <node id="3185059836" version="1" timestamp="1970-01-01T00:00:00Z" uid="0" user="" lat="50.6841675" lon="12.6499062"/>
  <node id="3185059837" version="1" timestamp="1970-01-01T00:00:00Z" uid="0" user="" lat="50.6872724" lon="12.6536981"/>
  <node id="3185059838" version="1" timestamp="1970-01-01T00:00:00Z" uid="0" user="" lat="50.6908261" lon="12.6906371"/>
  <node id="3269172373" version="1" timestamp="1970-01-01T00:00:00Z" uid="0" user="" lat="50.7264482" lon="12.7779189"/>
  <node id="3269172374" version="1" timestamp="1970-01-01T00:00:00Z" uid="0" user="" lat="50.7268382" lon="12.7782146"/>
  <node id="3269172386" version="1" timestamp="1970-01-01T00:00:00Z" uid="0" user="" lat="50.728571" lon="12.7791397"/>
  <node id="3269172387" version="1" timestamp="1970-01-01T00:00:00Z" uid="0" user="" lat="50.7286544" lon="12.7789871"/>
  <node id="3269172392" version="1" timestamp="1970-01-01T00:00:00Z" uid="0" user="" lat="50.732846" lon="12.7799008"/>
  <node id="3269244261" version="1" timestamp="1970-01-01T00:00:00Z" uid="0" user="" lat="50.7007918" lon="12.7477226"/>
  <node id="3269244264" version="1" timestamp="1970-01-01T00:00:00Z" uid="0" user="" lat="50.7035862" lon="12.7521071"/>
  <node id="3269244268" version="1" timestamp="1970-01-01T00:00:00Z" uid="0" user="" lat="50.7048771" lon="12.7535094"/>
  <node id="3269244269" version="1" timestamp="1970-01-01T00:00:00Z" uid="0" user="" lat="50.7052721" lon="12.754005"/>
  <node id="3269244271" version="1" timestamp="1970-01-01T00:00:00Z" uid="0" user="" lat="50.7076681" lon="12.7563284"/>
  <node id="3269244273" version="1" timestamp="1970-01-01T00:00:00Z" uid="0" user="" lat="50.7097383" lon="12.7574966"/>
  <node id="3269244274" version="1" timestamp="1970-01-01T00:00:00Z" uid="0" user="" lat="50.7252892" lon="12.7765743"/>
  <node id="3269244276" version="1" timestamp="1970-01-01T00:00:00Z" uid="0" user="" lat="50.734591" lon="12.7803903"/>
  <node id="3269244277" version="1" timestamp="1970-01-01T00:00:00Z" uid="0" user="" lat="50.7346455" lon="12.7805875"/>
  <node id="3269244279" version="1" timestamp="1970-01-01T00:00:00Z" uid="0" user="" lat="50.7359858" lon="12.7811523"/>
  <node id="3269260265" version="1" timestamp="1970-01-01T00:00:00Z" uid="0" user="" lat="50.6922018" lon="12.7189702"/>
  <node id="3269260266" version="1" timestamp="1970-01-01T00:00:00Z" uid="0" user="" lat="50.6923284" lon="12.7189796"/>
  <node id="3269260273" version="1" timestamp="1970-01-01T00:00:00Z" uid="0" user="" lat="50.6951475" lon="12.7304534"/>
  <node id="3269260274" version="1" timestamp="1970-01-01T00:00:00Z" uid="0" user="" lat="50.6954232" lon="12.7310824"/>
  <node id="3269260275" version="1" timestamp="1970-01-01T00:00:00Z" uid="0" user="" lat="50.699733" lon="12.7452593"/>
  <node id="3269260276" version="1" timestamp="1970-01-01T00:00:00Z" uid="0" user="" lat="50.6998057" lon="12.7450916"/>
  <node id="3269260277" version="1" timestamp="1970-01-01T00:00:00Z" uid="0" user="" lat="50.7001244" lon="12.7460325"/>
  <node id="3269339767" version="1" timestamp="1970-01-01T00:00:00Z" uid="0" user="" lat="50.6913701" lon="12.704526"/>
  <node id="3269339771" version="1" timestamp="1970-01-01T00:00:00Z" uid="0" user="" lat="50.6914628" lon="12.7053781"/>
  <node id="3269339773" version="1" timestamp="1970-01-01T00:00:00Z" uid="0" user="" lat="50.6916195" lon="12.6968348"/>
  <node id="3269370835" version="1" timestamp="1970-01-01T00:00:00Z" uid="0" user="" lat="50.6902946" lon="12.6879538"/>
  <node id="3269370837" version="1" timestamp="1970-01-01T00:00:00Z" uid="0" user="" lat="50.6906699" lon="12.6895424"/>
  <node id="3269370838" version="1" timestamp="1970-01-01T00:00:00Z" uid="0" user="" lat="50.6910282" lon="12.6909901"/>
  <node id="3269370839" version="1" timestamp="1970-01-01T00:00:00Z" uid="0" user="" lat="50.6910721" lon="12.6916662"/>
  <node id="3269370840" version="1" timestamp="1970-01-01T00:00:00Z" uid="0" user="" lat="50.6914102" lon="12.6934978"/>
  <node id="3269370841" version="1" timestamp="1970-01-01T00:00:00Z" uid="0" user="" lat="50.6915029" lon="12.6934035"/>
  <node id="3666489786" version="1" timestamp="1970-01-01T00:00:00Z" uid="0" user="" lat="50.690003" lon="12.660665"/>
  <way id="3237246" version="-1" timestamp="1969-12-31T23:59:59Z">
    <nd ref="20975255"/>
    <nd ref="408411026"/>
    <tag k="ref" v="A 72"/>
    <tag k="lanes" v="2"/>
    <tag k="hazmat" v="designated"/>
    <tag k="oneway" v="yes"/>
    <tag k="bdouble" v="yes"/>
    <tag k="highway" v="motorway"/>
    <tag k="int_ref" v="E 441"/>
    <tag k="maxspeed" v="none"/>
    <tag k="source:maxspeed" v="DE:motorway"/>
  </way>
  <way id="4769260" version="-1" timestamp="1969-12-31T23:59:59Z">
    <nd ref="30471101"/>
    <nd ref="20975255"/>
    <tag k="ref" v="A 72"/>
    <tag k="lanes" v="3"/>
    <tag k="layer" v="1"/>
    <tag k="bridge" v="yes"/>
    <tag k="hazmat" v="designated"/>
    <tag k="oneway" v="yes"/>
    <tag k="bdouble" v="yes"/>
    <tag k="highway" v="motorway"/>
    <tag k="int_ref" v="E 441"/>
    <tag k="maxspeed" v="none"/>
    <tag k="placement" v="right_of:1"/>
    <tag k="turn:lanes" v="none|none|slight_right"/>
    <tag k="source:maxspeed" v="DE:motorway"/>
    <tag k="destination:symbol:lanes" v="none|none|parking;toilets"/>
  </way>
  <way id="4769261" version="-1" timestamp="1969-12-31T23:59:59Z">
    <nd ref="30471107"/>
    <nd ref="2128683418"/>
    <nd ref="3269260273"/>
    <tag k="ref" v="A 72"/>
    <tag k="lanes" v="3"/>
    <tag k="hazmat" v="designated"/>
    <tag k="oneway" v="yes"/>
    <tag k="bdouble" v="yes"/>
    <tag k="highway" v="motorway"/>
    <tag k="int_ref" v="E 441"/>
    <tag k="maxspeed" v="none"/>
    <tag k="placement" v="right_of:1"/>
    <tag k="turn:lanes" v="none|none|merge_to_left"/>
    <tag k="source:maxspeed" v="DE:motorway"/>
  </way>
  <way id="19096656" version="-1" timestamp="1969-12-31T23:59:59Z">
    <nd ref="197993441"/>
    <nd ref="1914196360"/>
    <nd ref="373916361"/>
    <nd ref="373916289"/>
    <nd ref="541187"/>
    <nd ref="373915122"/>
    <nd ref="373915227"/>
    <nd ref="373915373"/>
    <nd ref="541188"/>
    <nd ref="373915566"/>
    <nd ref="373915569"/>
    <nd ref="23887602"/>
    <nd ref="373915771"/>
    <nd ref="373916072"/>
    <nd ref="541189"/>
    <nd ref="1914196330"/>
    <nd ref="20975271"/>
    <nd ref="1914196323"/>
    <nd ref="1914196322"/>
    <nd ref="1914196319"/>
    <nd ref="3185059835"/>
    <tag k="ref" v="A 72"/>
    <tag k="lanes" v="2"/>
    <tag k="hazmat" v="designated"/>
    <tag k="oneway" v="yes"/>
    <tag k="bdouble" v="yes"/>
    <tag k="highway" v="motorway"/>
    <tag k="int_ref" v="E 441"/>
    <tag k="maxspeed" v="none"/>
    <tag k="source:maxspeed" v="sign"/>
  </way>
  <way id="19670488" version="-1" timestamp="1969-12-31T23:59:59Z">
    <nd ref="160513503"/>
    <nd ref="30471107"/>
    <tag k="ref" v="A 72"/>
    <tag k="lanes" v="3"/>
    <tag k="layer" v="1"/>
    <tag k="bridge" v="yes"/>
    <tag k="hazmat" v="designated"/>
    <tag k="oneway" v="yes"/>
    <tag k="bdouble" v="yes"/>
    <tag k="highway" v="motorway"/>
    <tag k="int_ref" v="E 441"/>
    <tag k="maxspeed" v="none"/>
    <tag k="placement" v="right_of:1"/>
    <tag k="turn:lanes" v="none|none|merge_to_left"/>
    <tag k="source:maxspeed" v="DE:motorway"/>
  </way>
  <way id="22092731" version="-1" timestamp="1969-12-31T23:59:59Z">
    <nd ref="237758112"/>
    <nd ref="1213091313"/>
    <nd ref="20975237"/>
    <nd ref="20975238"/>
    <nd ref="1213091292"/>
    <nd ref="1213091343"/>
    <nd ref="20975239"/>
    <nd ref="1213091345"/>
    <nd ref="2064926382"/>
    <nd ref="20975240"/>
    <nd ref="2064926380"/>
    <nd ref="2064926378"/>
    <nd ref="20975241"/>
    <nd ref="2064926376"/>
    <nd ref="204107954"/>
    <nd ref="2064926374"/>
    <nd ref="20975242"/>
    <nd ref="2064926372"/>
    <nd ref="204107950"/>
    <nd ref="3269244276"/>
    <nd ref="20975243"/>
    <nd ref="3269172392"/>
    <nd ref="2784247794"/>
    <tag k="lit" v="no"/>
    <tag k="ref" v="A 72"/>
    <tag k="lanes" v="2"/>
    <tag k="hazmat" v="designated"/>
    <tag k="oneway" v="yes"/>
    <tag k="bdouble" v="yes"/>
    <tag k="highway" v="motorway"/>
    <tag k="int_ref" v="E 441"/>
    <tag k="maxspeed" v="none"/>
    <tag k="source:maxspeed" v="DE:motorway"/>
  </way>
  <way id="22912644" version="-1" timestamp="1969-12-31T23:59:59Z">
    <nd ref="20975252"/>
    <nd ref="246682174"/>
    <tag k="ref" v="A 72"/>
    <tag k="lanes" v="3"/>
    <tag k="layer" v="1"/>
    <tag k="bridge" v="yes"/>
    <tag k="hazmat" v="designated"/>
    <tag k="oneway" v="yes"/>
    <tag k="bdouble" v="yes"/>
    <tag k="highway" v="motorway"/>
    <tag k="int_ref" v="E 441"/>
    <tag k="maxspeed" v="none"/>
    <tag k="placement" v="right_of:1"/>
    <tag k="turn:lanes" v="none|none|slight_right"/>
    <tag k="source:maxspeed" v="DE:motorway"/>
    <tag k="destination:lanes" v="Hartenstein|Hartenstein|Stollberg-West;Zwönitz;Oelsnitz/Erzgeb.;Thalheim"/>
    <tag k="destination:ref:lanes" v="A 72|A 72|B 169"/>
  </way>
  <way id="22912645" version="-1" timestamp="1969-12-31T23:59:59Z">
    <nd ref="246682174"/>
    <nd ref="97681249"/>
    <tag k="ref" v="A 72"/>
    <tag k="lanes" v="3"/>
    <tag k="hazmat" v="designated"/>
    <tag k="oneway" v="yes"/>
    <tag k="bdouble" v="yes"/>
    <tag k="highway" v="motorway"/>
    <tag k="int_ref" v="E 441"/>
    <tag k="maxspeed" v="none"/>
    <tag k="placement" v="right_of:1"/>
    <tag k="turn:lanes" v="none|none|slight_right"/>
    <tag k="source:maxspeed" v="DE:motorway"/>
    <tag k="destination:lanes" v="Hartenstein|Hartenstein|Stollberg-West;Zwönitz;Oelsnitz/Erzgeb.;Thalheim"/>
    <tag k="destination:ref:lanes" v="A 72|A 72|B 169"/>
  </way>
  <way id="22912648" version="-1" timestamp="1969-12-31T23:59:59Z">
    <nd ref="541203"/>
    <nd ref="3132028801"/>
    <nd ref="3132028785"/>
    <tag k="lit" v="no"/>
    <tag k="ref" v="A 72"/>
    <tag k="lanes" v="3"/>
    <tag k="hazmat" v="designated"/>
    <tag k="oneway" v="yes"/>
    <tag k="bdouble" v="yes"/>
    <tag k="highway" v="motorway"/>
    <tag k="int_ref" v="E 441"/>
    <tag k="maxspeed" v="none"/>
    <tag k="placement" v="right_of:1"/>
    <tag k="turn:lanes" v="none|none|slight_right"/>
    <tag k="source:maxspeed" v="DE:motorway"/>
    <tag k="destination:lanes" v="Stollberg-Nord|Stollberg-Nord|Stollberg-West;Annaberg-Buchholz;Zwönitz;Thalheim"/>
    <tag k="destination:ref:lanes" v="A 72|A 72|B 169"/>
  </way>
  <way id="22912649" version="-1" timestamp="1969-12-31T23:59:59Z">
    <nd ref="246682195"/>
    <nd ref="541203"/>
    <tag k="ref" v="A 72"/>
    <tag k="lanes" v="3"/>
    <tag k="layer" v="1"/>
    <tag k="bridge" v="yes"/>
    <tag k="hazmat" v="designated"/>
    <tag k="oneway" v="yes"/>
    <tag k="bdouble" v="yes"/>
    <tag k="highway" v="motorway"/>
    <tag k="int_ref" v="E 441"/>
    <tag k="maxspeed" v="none"/>
    <tag k="placement" v="right_of:1"/>
    <tag k="turn:lanes" v="none|none|slight_right"/>
    <tag k="source:maxspeed" v="DE:motorway"/>
    <tag k="destination:lanes" v="Stollberg-Nord|Stollberg-Nord|Stollberg-West;Annaberg-Buchholz;Zwönitz;Thalheim"/>
    <tag k="destination:ref:lanes" v="A 72|A 72|B 169"/>
  </way>
  <way id="22912718" version="-1" timestamp="1969-12-31T23:59:59Z">
    <nd ref="541210"/>
    <nd ref="246682953"/>
    <tag k="lit" v="no"/>
    <tag k="ref" v="A 72"/>
    <tag k="lanes" v="3"/>
    <tag k="layer" v="1"/>
    <tag k="bridge" v="yes"/>
    <tag k="hazmat" v="designated"/>
    <tag k="oneway" v="yes"/>
    <tag k="bdouble" v="yes"/>
    <tag k="highway" v="motorway"/>
    <tag k="int_ref" v="E 441"/>
    <tag k="maxspeed" v="none"/>
    <tag k="placement" v="right_of:1"/>
    <tag k="turn:lanes" v="none|none|slight_right"/>
    <tag k="source:maxspeed" v="DE:motorway"/>
    <tag k="destination:lanes" v="Chemnitz-Süd|Chemnitz-Süd|Stollberg-Nord;Lugau;Niederdorf"/>
    <tag k="destination:ref:lanes" v="A 72|A 72|B 169"/>
  </way>
  <way id="22912721" version="-1" timestamp="1969-12-31T23:59:59Z">
    <nd ref="246682953"/>
    <nd ref="3269172386"/>
    <nd ref="204107939"/>
    <nd ref="32047912"/>
    <tag k="lit" v="no"/>
    <tag k="ref" v="A 72"/>
    <tag k="lanes" v="3"/>
    <tag k="hazmat" v="designated"/>
    <tag k="oneway" v="yes"/>
    <tag k="bdouble" v="yes"/>
    <tag k="highway" v="motorway"/>
    <tag k="int_ref" v="E 441"/>
    <tag k="maxspeed" v="none"/>
    <tag k="placement" v="right_of:1"/>
    <tag k="turn:lanes" v="none|none|slight_right"/>
    <tag k="source:maxspeed" v="DE:motorway"/>
    <tag k="destination:lanes" v="Chemnitz-Süd|Chemnitz-Süd|Stollberg-Nord;Lugau;Niederdorf"/>
    <tag k="destination:ref:lanes" v="A 72|A 72|B 169"/>
  </way>
  <way id="22912725" version="-1" timestamp="1969-12-31T23:59:59Z">
    <nd ref="246682969"/>
    <nd ref="20975244"/>
    <tag k="lit" v="no"/>
    <tag k="ref" v="A 72"/>
    <tag k="lanes" v="3"/>
    <tag k="layer" v="1"/>
    <tag k="bridge" v="yes"/>
    <tag k="hazmat" v="designated"/>
    <tag k="oneway" v="yes"/>
    <tag k="bdouble" v="yes"/>
    <tag k="highway" v="motorway"/>
    <tag k="int_ref" v="E 441"/>
    <tag k="maxspeed" v="none"/>
    <tag k="placement" v="right_of:1"/>
    <tag k="turn:lanes" v="none|none|merge_to_left"/>
    <tag k="source:maxspeed" v="DE:motorway"/>
  </way>
  <way id="22912727" version="-1" timestamp="1969-12-31T23:59:59Z">
    <nd ref="20975244"/>
    <nd ref="2064926369"/>
    <nd ref="20975245"/>
    <tag k="lit" v="no"/>
    <tag k="ref" v="A 72"/>
    <tag k="lanes" v="3"/>
    <tag k="hazmat" v="designated"/>
    <tag k="oneway" v="yes"/>
    <tag k="bdouble" v="yes"/>
    <tag k="highway" v="motorway"/>
    <tag k="int_ref" v="E 441"/>
    <tag k="maxspeed" v="none"/>
    <tag k="placement" v="right_of:1"/>
    <tag k="turn:lanes" v="none|none|merge_to_left"/>
    <tag k="source:maxspeed" v="DE:motorway"/>
  </way>
  <way id="22938313" version="-1" timestamp="1969-12-31T23:59:59Z">
    <nd ref="247089305"/>
    <nd ref="2081261986"/>
    <tag k="ref" v="A 72"/>
    <tag k="lanes" v="3"/>
    <tag k="hazmat" v="designated"/>
    <tag k="oneway" v="yes"/>
    <tag k="bdouble" v="yes"/>
    <tag k="highway" v="motorway"/>
    <tag k="int_ref" v="E 441"/>
    <tag k="maxspeed" v="none"/>
    <tag k="placement" v="right_of:1"/>
    <tag k="turn:lanes" v="none|none|merge_to_left"/>
    <tag k="source:maxspeed" v="DE:motorway"/>
  </way>
  <way id="22938315" version="-1" timestamp="1969-12-31T23:59:59Z">
    <nd ref="20975258"/>
    <nd ref="247089305"/>
    <tag k="ref" v="A 72"/>
    <tag k="lanes" v="3"/>
    <tag k="layer" v="1"/>
    <tag k="bridge" v="yes"/>
    <tag k="hazmat" v="designated"/>
    <tag k="oneway" v="yes"/>
    <tag k="bdouble" v="yes"/>
    <tag k="highway" v="motorway"/>
    <tag k="int_ref" v="E 441"/>
    <tag k="maxspeed" v="none"/>
    <tag k="placement" v="right_of:1"/>
    <tag k="turn:lanes" v="none|none|merge_to_left"/>
    <tag k="source:maxspeed" v="DE:motorway"/>
  </way>
  <way id="22938319" version="-1" timestamp="1969-12-31T23:59:59Z">
    <nd ref="247089326"/>
    <nd ref="23716134"/>
    <tag k="ref" v="A 72"/>
    <tag k="lanes" v="2"/>
    <tag k="hazmat" v="designated"/>
    <tag k="oneway" v="yes"/>
    <tag k="bdouble" v="yes"/>
    <tag k="highway" v="motorway"/>
    <tag k="int_ref" v="E 441"/>
    <tag k="maxspeed" v="none"/>
    <tag k="source:maxspeed" v="DE:motorway"/>
  </way>
  <way id="22938320" version="-1" timestamp="1969-12-31T23:59:59Z">
    <nd ref="247089328"/>
    <nd ref="247089326"/>
    <tag k="ref" v="A 72"/>
    <tag k="lanes" v="3"/>
    <tag k="layer" v="1"/>
    <tag k="bridge" v="yes"/>
    <tag k="hazmat" v="designated"/>
    <tag k="oneway" v="yes"/>
    <tag k="bdouble" v="yes"/>
    <tag k="highway" v="motorway"/>
    <tag k="int_ref" v="E 441"/>
    <tag k="maxspeed" v="none"/>
    <tag k="placement" v="right_of:1"/>
    <tag k="turn:lanes" v="none|none|slight_right"/>
    <tag k="source:maxspeed" v="DE:motorway"/>
    <tag k="destination:lanes" v="Stollberg-West|Stollberg-West|Hartenstein;Lichtenstein;Oelsnitz/Erzgeb.;Aue"/>
  </way>
  <way id="24158024" version="-1" timestamp="1969-12-31T23:59:59Z">
    <nd ref="261680434"/>
    <nd ref="261680433"/>
    <tag k="ref" v="A 72"/>
    <tag k="lanes" v="2"/>
    <tag k="layer" v="1"/>
    <tag k="bridge" v="yes"/>
    <tag k="hazmat" v="designated"/>
    <tag k="oneway" v="yes"/>
    <tag k="bdouble" v="yes"/>
    <tag k="highway" v="motorway"/>
    <tag k="int_ref" v="E 441"/>
    <tag k="maxspeed" v="none"/>
    <tag k="source:maxspeed" v="DE:motorway"/>
  </way>
  <way id="24158025" version="-1" timestamp="1969-12-31T23:59:59Z">
    <nd ref="261680433"/>
    <nd ref="3269260274"/>
    <tag k="ref" v="A 72"/>
    <tag k="lanes" v="2"/>
    <tag k="hazmat" v="designated"/>
    <tag k="oneway" v="yes"/>
    <tag k="bdouble" v="yes"/>
    <tag k="highway" v="motorway"/>
    <tag k="int_ref" v="E 441"/>
    <tag k="maxspeed" v="none"/>
    <tag k="source:maxspeed" v="DE:motorway"/>
  </way>
  <way id="24158026" version="-1" timestamp="1969-12-31T23:59:59Z">
    <nd ref="261680432"/>
    <nd ref="261680431"/>
    <tag k="ref" v="A 72"/>
    <tag k="lanes" v="2"/>
    <tag k="layer" v="1"/>
    <tag k="bridge" v="yes"/>
    <tag k="hazmat" v="designated"/>
    <tag k="oneway" v="yes"/>
    <tag k="bdouble" v="yes"/>
    <tag k="highway" v="motorway"/>
    <tag k="int_ref" v="E 441"/>
    <tag k="maxspeed" v="none"/>
    <tag k="source:maxspeed" v="DE:motorway"/>
  </way>
  <way id="24158027" version="-1" timestamp="1969-12-31T23:59:59Z">
    <nd ref="261680431"/>
    <nd ref="246681988"/>
    <nd ref="23887621"/>
    <nd ref="541201"/>
    <nd ref="3269260275"/>
    <nd ref="204102794"/>
    <nd ref="2064984185"/>
    <nd ref="541202"/>
    <nd ref="2064984187"/>
    <nd ref="1959021331"/>
    <nd ref="3269244264"/>
    <tag k="ref" v="A 72"/>
    <tag k="lanes" v="2"/>
    <tag k="hazmat" v="designated"/>
    <tag k="oneway" v="yes"/>
    <tag k="bdouble" v="yes"/>
    <tag k="highway" v="motorway"/>
    <tag k="int_ref" v="E 441"/>
    <tag k="maxspeed" v="none"/>
    <tag k="source:maxspeed" v="DE:motorway"/>
  </way>
  <way id="27034911" version="-1" timestamp="1969-12-31T23:59:59Z">
    <nd ref="541194"/>
    <nd ref="296339460"/>
    <tag k="ref" v="A 72"/>
    <tag k="lanes" v="2"/>
    <tag k="layer" v="1"/>
    <tag k="bridge" v="yes"/>
    <tag k="hazmat" v="designated"/>
    <tag k="oneway" v="yes"/>
    <tag k="bdouble" v="yes"/>
    <tag k="highway" v="motorway"/>
    <tag k="int_ref" v="E 441"/>
    <tag k="maxspeed" v="130"/>
    <tag k="source:maxspeed" v="sign"/>
  </way>
  <way id="27034912" version="-1" timestamp="1969-12-31T23:59:59Z">
    <nd ref="296339460"/>
    <nd ref="1701047452"/>
    <nd ref="204095116"/>
    <nd ref="2065067506"/>
    <nd ref="1914196374"/>
    <nd ref="541195"/>
    <nd ref="2065067490"/>
    <nd ref="541196"/>
    <nd ref="1731178133"/>
    <nd ref="255434135"/>
    <nd ref="2065067486"/>
    <nd ref="1731178135"/>
    <nd ref="541197"/>
    <nd ref="2465148179"/>
    <nd ref="3185059838"/>
    <tag k="ref" v="A 72"/>
    <tag k="lanes" v="2"/>
    <tag k="hazmat" v="designated"/>
    <tag k="oneway" v="yes"/>
    <tag k="bdouble" v="yes"/>
    <tag k="highway" v="motorway"/>
    <tag k="int_ref" v="E 441"/>
    <tag k="maxspeed" v="130"/>
    <tag k="source:maxspeed" v="sign"/>
  </way>
  <way id="27034914" version="-1" timestamp="1969-12-31T23:59:59Z">
    <nd ref="20975263"/>
    <nd ref="2065067516"/>
    <nd ref="1731178142"/>
    <nd ref="296339398"/>
    <nd ref="23887615"/>
    <nd ref="1914196376"/>
    <nd ref="2065067501"/>
    <nd ref="1701047450"/>
    <nd ref="20975264"/>
    <nd ref="1914196373"/>
    <nd ref="1914196371"/>
    <nd ref="23887606"/>
    <nd ref="1914196368"/>
    <nd ref="1914196365"/>
    <nd ref="20975265"/>
    <nd ref="1914196357"/>
    <nd ref="1914196353"/>
    <nd ref="20100697"/>
    <nd ref="20975266"/>
    <nd ref="369318563"/>
    <tag k="ref" v="A 72"/>
    <tag k="lanes" v="2"/>
    <tag k="hazmat" v="designated"/>
    <tag k="oneway" v="yes"/>
    <tag k="bdouble" v="yes"/>
    <tag k="highway" v="motorway"/>
    <tag k="int_ref" v="E 441"/>
    <tag k="maxspeed" v="none"/>
    <tag k="source:maxspeed" v="DE:motorway"/>
  </way>
  <way id="27034918" version="-1" timestamp="1969-12-31T23:59:59Z">
    <nd ref="296339435"/>
    <nd ref="20975263"/>
    <tag k="ref" v="A 72"/>
    <tag k="lanes" v="2"/>
    <tag k="layer" v="1"/>
    <tag k="bridge" v="yes"/>
    <tag k="hazmat" v="designated"/>
    <tag k="oneway" v="yes"/>
    <tag k="bdouble" v="yes"/>
    <tag k="highway" v="motorway"/>
    <tag k="int_ref" v="E 441"/>
    <tag k="maxspeed" v="none"/>
    <tag k="source:maxspeed" v="DE:motorway"/>
  </way>
  <way id="32784630" version="-1" timestamp="1969-12-31T23:59:59Z">
    <nd ref="369318565"/>
    <nd ref="369318567"/>
    <tag k="ref" v="A 72"/>
    <tag k="lanes" v="2"/>
    <tag k="layer" v="1"/>
    <tag k="bridge" v="yes"/>
    <tag k="hazmat" v="designated"/>
    <tag k="oneway" v="yes"/>
    <tag k="bdouble" v="yes"/>
    <tag k="highway" v="motorway"/>
    <tag k="int_ref" v="E 441"/>
    <tag k="maxspeed" v="130"/>
    <tag k="source:maxspeed" v="sign"/>
  </way>
  <way id="32784631" version="-1" timestamp="1969-12-31T23:59:59Z">
    <nd ref="369318567"/>
    <nd ref="3185059836"/>
    <nd ref="20100706"/>
    <nd ref="20100701"/>
    <nd ref="1914196352"/>
    <nd ref="3185059837"/>
    <nd ref="1914196356"/>
    <nd ref="20100705"/>
    <nd ref="1914196364"/>
    <nd ref="1914196367"/>
    <nd ref="23887610"/>
    <nd ref="1914196369"/>
    <nd ref="1914196372"/>
    <nd ref="20100704"/>
    <nd ref="3666489786"/>
    <nd ref="1701047437"/>
    <nd ref="1701047448"/>
    <nd ref="1914196375"/>
    <nd ref="23887618"/>
    <nd ref="296339415"/>
    <nd ref="1731178141"/>
    <nd ref="2065067512"/>
    <nd ref="541194"/>
    <tag k="ref" v="A 72"/>
    <tag k="lanes" v="2"/>
    <tag k="hazmat" v="designated"/>
    <tag k="oneway" v="yes"/>
    <tag k="bdouble" v="yes"/>
    <tag k="highway" v="motorway"/>
    <tag k="int_ref" v="E 441"/>
    <tag k="maxspeed" v="130"/>
    <tag k="source:maxspeed" v="sign"/>
  </way>
  <way id="32784632" version="-1" timestamp="1969-12-31T23:59:59Z">
    <nd ref="369318563"/>
    <nd ref="369318559"/>
    <tag k="ref" v="A 72"/>
    <tag k="lanes" v="2"/>
    <tag k="layer" v="1"/>
    <tag k="bridge" v="yes"/>
    <tag k="hazmat" v="designated"/>
    <tag k="oneway" v="yes"/>
    <tag k="bdouble" v="yes"/>
    <tag k="highway" v="motorway"/>
    <tag k="int_ref" v="E 441"/>
    <tag k="maxspeed" v="none"/>
    <tag k="source:maxspeed" v="DE:motorway"/>
  </way>
  <way id="32784633" version="-1" timestamp="1969-12-31T23:59:59Z">
    <nd ref="369318559"/>
    <nd ref="1731178132"/>
    <nd ref="1914196336"/>
    <nd ref="20975267"/>
    <nd ref="1914196334"/>
    <nd ref="204095109"/>
    <nd ref="1914196328"/>
    <nd ref="20975270"/>
    <nd ref="1914196320"/>
    <nd ref="1914196318"/>
    <nd ref="369318575"/>
    <tag k="ref" v="A 72"/>
    <tag k="lanes" v="2"/>
    <tag k="hazmat" v="designated"/>
    <tag k="oneway" v="yes"/>
    <tag k="bdouble" v="yes"/>
    <tag k="highway" v="motorway"/>
    <tag k="int_ref" v="E 441"/>
    <tag k="maxspeed" v="none"/>
    <tag k="source:maxspeed" v="DE:motorway"/>
  </way>
  <way id="32784634" version="-1" timestamp="1969-12-31T23:59:59Z">
    <nd ref="369318575"/>
    <nd ref="369318571"/>
    <tag k="ref" v="A 72"/>
    <tag k="lanes" v="2"/>
    <tag k="layer" v="1"/>
    <tag k="bridge" v="yes"/>
    <tag k="hazmat" v="designated"/>
    <tag k="oneway" v="yes"/>
    <tag k="bdouble" v="yes"/>
    <tag k="highway" v="motorway"/>
    <tag k="int_ref" v="E 441"/>
    <tag k="maxspeed" v="none"/>
    <tag k="source:maxspeed" v="DE:motorway"/>
  </way>
  <way id="32784635" version="-1" timestamp="1969-12-31T23:59:59Z">
    <nd ref="369318571"/>
    <nd ref="20975268"/>
    <nd ref="1914196325"/>
    <nd ref="1914196326"/>
    <nd ref="1914196327"/>
    <nd ref="20975272"/>
    <nd ref="1914196332"/>
    <nd ref="20975273"/>
    <nd ref="373915928"/>
    <nd ref="373915929"/>
    <nd ref="23887597"/>
    <nd ref="373915620"/>
    <nd ref="20975274"/>
    <nd ref="373915476"/>
    <nd ref="373915259"/>
    <nd ref="373915135"/>
    <nd ref="373915094"/>
    <nd ref="20975275"/>
    <nd ref="373916261"/>
    <nd ref="373916314"/>
    <nd ref="1914196362"/>
    <nd ref="197993446"/>
    <tag k="ref" v="A 72"/>
    <tag k="lanes" v="2"/>
    <tag k="hazmat" v="designated"/>
    <tag k="oneway" v="yes"/>
    <tag k="bdouble" v="yes"/>
    <tag k="highway" v="motorway"/>
    <tag k="int_ref" v="E 441"/>
    <tag k="maxspeed" v="none"/>
    <tag k="source:maxspeed" v="DE:motorway"/>
  </way>
  <way id="32784636" version="-1" timestamp="1969-12-31T23:59:59Z">
    <nd ref="369318578"/>
    <nd ref="369318582"/>
    <tag k="ref" v="A 72"/>
    <tag k="lanes" v="2"/>
    <tag k="layer" v="1"/>
    <tag k="bridge" v="yes"/>
    <tag k="hazmat" v="designated"/>
    <tag k="oneway" v="yes"/>
    <tag k="bdouble" v="yes"/>
    <tag k="highway" v="motorway"/>
    <tag k="int_ref" v="E 441"/>
    <tag k="maxspeed" v="130"/>
    <tag k="source:maxspeed" v="sign"/>
  </way>
  <way id="32784638" version="-1" timestamp="1969-12-31T23:59:59Z">
    <nd ref="369318582"/>
    <nd ref="1914196316"/>
    <nd ref="1914196317"/>
    <nd ref="20975269"/>
    <nd ref="1914196324"/>
    <nd ref="204095114"/>
    <nd ref="1914196333"/>
    <nd ref="541191"/>
    <nd ref="1914196335"/>
    <nd ref="1731178131"/>
    <nd ref="369318565"/>
    <tag k="ref" v="A 72"/>
    <tag k="lanes" v="2"/>
    <tag k="hazmat" v="designated"/>
    <tag k="oneway" v="yes"/>
    <tag k="bdouble" v="yes"/>
    <tag k="highway" v="motorway"/>
    <tag k="int_ref" v="E 441"/>
    <tag k="maxspeed" v="130"/>
    <tag k="source:maxspeed" v="sign"/>
  </way>
  <way id="32784639" version="-1" timestamp="1969-12-31T23:59:59Z">
    <nd ref="369318594"/>
    <nd ref="369318597"/>
    <tag k="ref" v="A 72"/>
    <tag k="lanes" v="2"/>
    <tag k="layer" v="1"/>
    <tag k="bridge" v="yes"/>
    <tag k="hazmat" v="designated"/>
    <tag k="oneway" v="yes"/>
    <tag k="bdouble" v="yes"/>
    <tag k="highway" v="motorway"/>
    <tag k="int_ref" v="E 441"/>
    <tag k="maxspeed" v="none"/>
    <tag k="source:maxspeed" v="DE:motorway"/>
  </way>
  <way id="32784640" version="-1" timestamp="1969-12-31T23:59:59Z">
    <nd ref="369318597"/>
    <nd ref="20100709"/>
    <nd ref="160513498"/>
    <nd ref="2064984169"/>
    <nd ref="160513501"/>
    <nd ref="2064984174"/>
    <nd ref="1731178147"/>
    <nd ref="3269260265"/>
    <nd ref="204100437"/>
    <tag k="ref" v="A 72"/>
    <tag k="lanes" v="2"/>
    <tag k="hazmat" v="designated"/>
    <tag k="oneway" v="yes"/>
    <tag k="bdouble" v="yes"/>
    <tag k="highway" v="motorway"/>
    <tag k="int_ref" v="E 441"/>
    <tag k="maxspeed" v="none"/>
    <tag k="source:maxspeed" v="DE:motorway"/>
  </way>
  <way id="32784642" version="-1" timestamp="1969-12-31T23:59:59Z">
    <nd ref="369318591"/>
    <nd ref="369318587"/>
    <tag k="ref" v="A 72"/>
    <tag k="lanes" v="2"/>
    <tag k="layer" v="1"/>
    <tag k="bridge" v="yes"/>
    <tag k="hazmat" v="designated"/>
    <tag k="oneway" v="yes"/>
    <tag k="bdouble" v="yes"/>
    <tag k="highway" v="motorway"/>
    <tag k="int_ref" v="E 441"/>
    <tag k="maxspeed" v="none"/>
    <tag k="source:maxspeed" v="DE:motorway"/>
  </way>
  <way id="32784643" version="-1" timestamp="1969-12-31T23:59:59Z">
    <nd ref="369318587"/>
    <nd ref="20975257"/>
    <nd ref="3269339771"/>
    <tag k="ref" v="A 72"/>
    <tag k="lanes" v="2"/>
    <tag k="hazmat" v="designated"/>
    <tag k="oneway" v="yes"/>
    <tag k="bdouble" v="yes"/>
    <tag k="highway" v="motorway"/>
    <tag k="int_ref" v="E 441"/>
    <tag k="maxspeed" v="none"/>
    <tag k="source:maxspeed" v="DE:motorway"/>
  </way>
  <way id="44509479" version="-1" timestamp="1969-12-31T23:59:59Z">
    <nd ref="204107925"/>
    <nd ref="2064962789"/>
    <nd ref="2064962788"/>
    <nd ref="20975248"/>
    <nd ref="2064962784"/>
    <nd ref="20975249"/>
    <nd ref="2064962780"/>
    <nd ref="20975250"/>
    <nd ref="204102800"/>
    <nd ref="186903973"/>
    <nd ref="204102797"/>
    <nd ref="3269244271"/>
    <nd ref="20975251"/>
    <nd ref="996577312"/>
    <nd ref="3132028781"/>
    <nd ref="204102796"/>
    <nd ref="3269244269"/>
    <nd ref="3269244268"/>
    <tag k="lit" v="no"/>
    <tag k="ref" v="A 72"/>
    <tag k="lanes" v="2"/>
    <tag k="hazmat" v="designated"/>
    <tag k="oneway" v="yes"/>
    <tag k="bdouble" v="yes"/>
    <tag k="highway" v="motorway"/>
    <tag k="int_ref" v="E 441"/>
    <tag k="maxspeed" v="none"/>
    <tag k="source:maxspeed" v="DE:motorway"/>
  </way>
  <way id="44509485" version="-1" timestamp="1969-12-31T23:59:59Z">
    <nd ref="621988423"/>
    <nd ref="2064962792"/>
    <nd ref="204107926"/>
    <nd ref="2064962795"/>
    <nd ref="20100710"/>
    <nd ref="565503779"/>
    <tag k="lit" v="no"/>
    <tag k="ref" v="A 72"/>
    <tag k="lanes" v="2"/>
    <tag k="hazmat" v="designated"/>
    <tag k="oneway" v="yes"/>
    <tag k="bdouble" v="yes"/>
    <tag k="highway" v="motorway"/>
    <tag k="int_ref" v="E 441"/>
    <tag k="maxspeed" v="130"/>
    <tag k="source:maxspeed" v="sign"/>
  </way>
  <way id="44509487" version="-1" timestamp="1969-12-31T23:59:59Z">
    <nd ref="565503779"/>
    <nd ref="204107933"/>
    <nd ref="1959192284"/>
    <nd ref="2194651885"/>
    <nd ref="1138832662"/>
    <nd ref="1138832676"/>
    <nd ref="541209"/>
    <nd ref="3269172373"/>
    <nd ref="3269172374"/>
    <nd ref="541210"/>
    <tag k="lit" v="no"/>
    <tag k="ref" v="A 72"/>
    <tag k="lanes" v="2"/>
    <tag k="hazmat" v="designated"/>
    <tag k="oneway" v="yes"/>
    <tag k="bdouble" v="yes"/>
    <tag k="highway" v="motorway"/>
    <tag k="int_ref" v="E 441"/>
    <tag k="maxspeed" v="none"/>
    <tag k="source:maxspeed" v="DE:motorway"/>
  </way>
  <way id="49003045" version="-1" timestamp="1969-12-31T23:59:59Z">
    <nd ref="20975245"/>
    <nd ref="2064926368"/>
    <nd ref="2064962806"/>
    <nd ref="3269244274"/>
    <tag k="lit" v="no"/>
    <tag k="ref" v="A 72"/>
    <tag k="lanes" v="2"/>
    <tag k="hazmat" v="designated"/>
    <tag k="oneway" v="yes"/>
    <tag k="bdouble" v="yes"/>
    <tag k="highway" v="motorway"/>
    <tag k="int_ref" v="E 441"/>
    <tag k="maxspeed" v="130"/>
    <tag k="source:maxspeed" v="sign"/>
  </way>
  <way id="273587974" version="-1" timestamp="1969-12-31T23:59:59Z">
    <nd ref="32047853"/>
    <nd ref="246682969"/>
    <tag k="lit" v="no"/>
    <tag k="ref" v="A 72"/>
    <tag k="lanes" v="3"/>
    <tag k="hazmat" v="designated"/>
    <tag k="oneway" v="yes"/>
    <tag k="bdouble" v="yes"/>
    <tag k="highway" v="motorway"/>
    <tag k="int_ref" v="E 441"/>
    <tag k="maxspeed" v="none"/>
    <tag k="placement" v="right_of:1"/>
    <tag k="turn:lanes" v="none|none|merge_to_left"/>
    <tag k="source:maxspeed" v="DE:motorway"/>
  </way>
  <way id="273587975" version="-1" timestamp="1969-12-31T23:59:59Z">
    <nd ref="32047912"/>
    <nd ref="181872863"/>
    <tag k="lit" v="no"/>
    <tag k="ref" v="A 72"/>
    <tag k="lanes" v="2"/>
    <tag k="hazmat" v="designated"/>
    <tag k="oneway" v="yes"/>
    <tag k="bdouble" v="yes"/>
    <tag k="highway" v="motorway"/>
    <tag k="int_ref" v="E 441"/>
    <tag k="maxspeed" v="none"/>
    <tag k="source:maxspeed" v="DE:motorway"/>
  </way>
  <way id="273587977" version="-1" timestamp="1969-12-31T23:59:59Z">
    <nd ref="181872863"/>
    <nd ref="2784247798"/>
    <tag k="lit" v="no"/>
    <tag k="ref" v="A 72"/>
    <tag k="lanes" v="3"/>
    <tag k="hazmat" v="designated"/>
    <tag k="oneway" v="yes"/>
    <tag k="bdouble" v="yes"/>
    <tag k="highway" v="motorway"/>
    <tag k="int_ref" v="E 441"/>
    <tag k="maxspeed" v="none"/>
    <tag k="placement" v="right_of:1"/>
    <tag k="turn:lanes" v="none|none|merge_to_left"/>
    <tag k="source:maxspeed" v="DE:motorway"/>
  </way>
  <way id="273587979" version="-1" timestamp="1969-12-31T23:59:59Z">
    <nd ref="2784247798"/>
    <nd ref="541211"/>
    <nd ref="3269244277"/>
    <nd ref="204107944"/>
    <nd ref="3269244279"/>
    <tag k="lit" v="no"/>
    <tag k="ref" v="A 72"/>
    <tag k="lanes" v="2"/>
    <tag k="hazmat" v="designated"/>
    <tag k="oneway" v="yes"/>
    <tag k="bdouble" v="yes"/>
    <tag k="highway" v="motorway"/>
    <tag k="int_ref" v="E 441"/>
    <tag k="maxspeed" v="none"/>
    <tag k="source:maxspeed" v="DE:motorway"/>
  </way>
  <way id="273587980" version="-1" timestamp="1969-12-31T23:59:59Z">
    <nd ref="2784247794"/>
    <nd ref="204107941"/>
    <nd ref="237760796"/>
    <tag k="lit" v="no"/>
    <tag k="ref" v="A 72"/>
    <tag k="lanes" v="3"/>
    <tag k="hazmat" v="designated"/>
    <tag k="oneway" v="yes"/>
    <tag k="bdouble" v="yes"/>
    <tag k="highway" v="motorway"/>
    <tag k="int_ref" v="E 441"/>
    <tag k="maxspeed" v="none"/>
    <tag k="placement" v="right_of:1"/>
    <tag k="turn:lanes" v="none|none|slight_right"/>
    <tag k="source:maxspeed" v="DE:motorway"/>
    <tag k="destination:lanes" v="Stollberg-West|Stollberg-West|Stollberg-Nord;Lugau;Niederdorf"/>
    <tag k="destination:ref:lanes" v="A 72|A 72|B 169"/>
  </way>
  <way id="273587981" version="-1" timestamp="1969-12-31T23:59:59Z">
    <nd ref="237760796"/>
    <nd ref="23887628"/>
    <nd ref="2064926370"/>
    <nd ref="3269172387"/>
    <nd ref="32047853"/>
    <tag k="lit" v="no"/>
    <tag k="ref" v="A 72"/>
    <tag k="lanes" v="2"/>
    <tag k="hazmat" v="designated"/>
    <tag k="oneway" v="yes"/>
    <tag k="bdouble" v="yes"/>
    <tag k="highway" v="motorway"/>
    <tag k="int_ref" v="E 441"/>
    <tag k="maxspeed" v="none"/>
    <tag k="source:maxspeed" v="DE:motorway"/>
  </way>
  <way id="311885504" version="-1" timestamp="1969-12-31T23:59:59Z">
    <nd ref="3185059838"/>
    <nd ref="3269370839"/>
    <nd ref="541198"/>
    <nd ref="3269370840"/>
    <nd ref="1731178145"/>
    <nd ref="2128680897"/>
    <nd ref="23716128"/>
    <nd ref="3269339773"/>
    <tag k="ref" v="A 72"/>
    <tag k="lanes" v="2"/>
    <tag k="hazmat" v="designated"/>
    <tag k="oneway" v="yes"/>
    <tag k="bdouble" v="yes"/>
    <tag k="highway" v="motorway"/>
    <tag k="int_ref" v="E 441"/>
    <tag k="maxspeed" v="none"/>
    <tag k="source:maxspeed" v="sign"/>
  </way>
  <way id="312639086" version="-1" timestamp="1969-12-31T23:59:59Z">
    <nd ref="3185059835"/>
    <nd ref="541190"/>
    <nd ref="369318578"/>
    <tag k="ref" v="A 72"/>
    <tag k="lanes" v="2"/>
    <tag k="hazmat" v="designated"/>
    <tag k="oneway" v="yes"/>
    <tag k="bdouble" v="yes"/>
    <tag k="highway" v="motorway"/>
    <tag k="int_ref" v="E 441"/>
    <tag k="maxspeed" v="130"/>
    <tag k="source:maxspeed" v="sign"/>
  </way>
  <way id="320411461" version="-1" timestamp="1969-12-31T23:59:59Z">
    <nd ref="3269244273"/>
    <nd ref="204102799"/>
    <nd ref="541205"/>
    <nd ref="1106006688"/>
    <nd ref="541206"/>
    <nd ref="2064962782"/>
    <nd ref="541207"/>
    <nd ref="2064962786"/>
    <nd ref="1959068483"/>
    <nd ref="621988423"/>
    <tag k="lit" v="no"/>
    <tag k="ref" v="A 72"/>
    <tag k="lanes" v="2"/>
    <tag k="hazmat" v="designated"/>
    <tag k="oneway" v="yes"/>
    <tag k="bdouble" v="yes"/>
    <tag k="highway" v="motorway"/>
    <tag k="int_ref" v="E 441"/>
    <tag k="maxspeed" v="none"/>
    <tag k="source:maxspeed" v="DE:motorway"/>
  </way>
  <way id="320411462" version="-1" timestamp="1969-12-31T23:59:59Z">
    <nd ref="3269244268"/>
    <nd ref="20975252"/>
    <tag k="lit" v="no"/>
    <tag k="ref" v="A 72"/>
    <tag k="lanes" v="3"/>
    <tag k="hazmat" v="designated"/>
    <tag k="oneway" v="yes"/>
    <tag k="bdouble" v="yes"/>
    <tag k="highway" v="motorway"/>
    <tag k="int_ref" v="E 441"/>
    <tag k="maxspeed" v="none"/>
    <tag k="placement" v="right_of:1"/>
    <tag k="turn:lanes" v="none|none|slight_right"/>
    <tag k="source:maxspeed" v="DE:motorway"/>
    <tag k="destination:lanes" v="Hartenstein|Hartenstein|Stollberg-West;Zwönitz;Oelsnitz/Erzgeb.;Thalheim"/>
    <tag k="destination:ref:lanes" v="A 72|A 72|B 169"/>
  </way>
  <way id="320411463" version="-1" timestamp="1969-12-31T23:59:59Z">
    <nd ref="3269244264"/>
    <nd ref="246682195"/>
    <tag k="ref" v="A 72"/>
    <tag k="lanes" v="3"/>
    <tag k="hazmat" v="designated"/>
    <tag k="oneway" v="yes"/>
    <tag k="bdouble" v="yes"/>
    <tag k="highway" v="motorway"/>
    <tag k="int_ref" v="E 441"/>
    <tag k="maxspeed" v="none"/>
    <tag k="placement" v="right_of:1"/>
    <tag k="turn:lanes" v="none|none|slight_right"/>
    <tag k="source:maxspeed" v="DE:motorway"/>
    <tag k="destination:lanes" v="Stollberg-Nord|Stollberg-Nord|Stollberg-West;Annaberg-Buchholz;Zwönitz;Thalheim"/>
    <tag k="destination:ref:lanes" v="A 72|A 72|B 169"/>
  </way>
  <way id="320411464" version="-1" timestamp="1969-12-31T23:59:59Z">
    <nd ref="3269244279"/>
    <nd ref="2064926371"/>
    <nd ref="541212"/>
    <nd ref="2064926373"/>
    <nd ref="204107960"/>
    <nd ref="2064926375"/>
    <nd ref="541213"/>
    <nd ref="2064926377"/>
    <nd ref="2064926379"/>
    <nd ref="541214"/>
    <nd ref="2064926381"/>
    <nd ref="1213091334"/>
    <nd ref="541215"/>
    <nd ref="1213091281"/>
    <nd ref="1213091279"/>
    <nd ref="20100712"/>
    <nd ref="1871246634"/>
    <nd ref="20100711"/>
    <nd ref="1213091390"/>
    <nd ref="246683662"/>
    <tag k="lit" v="no"/>
    <tag k="ref" v="A 72"/>
    <tag k="lanes" v="2"/>
    <tag k="hazmat" v="designated"/>
    <tag k="oneway" v="yes"/>
    <tag k="bdouble" v="yes"/>
    <tag k="highway" v="motorway"/>
    <tag k="int_ref" v="E 441"/>
    <tag k="maxspeed" v="none"/>
    <tag k="source:maxspeed" v="DE:motorway"/>
  </way>
  <way id="320411465" version="-1" timestamp="1969-12-31T23:59:59Z">
    <nd ref="97681249"/>
    <nd ref="2064984189"/>
    <nd ref="95023990"/>
    <tag k="ref" v="A 72"/>
    <tag k="lanes" v="2"/>
    <tag k="hazmat" v="designated"/>
    <tag k="oneway" v="yes"/>
    <tag k="bdouble" v="yes"/>
    <tag k="highway" v="motorway"/>
    <tag k="int_ref" v="E 441"/>
    <tag k="maxspeed" v="none"/>
    <tag k="source:maxspeed" v="DE:motorway"/>
  </way>
  <way id="320411466" version="-1" timestamp="1969-12-31T23:59:59Z">
    <nd ref="1296357478"/>
    <nd ref="204102798"/>
    <nd ref="186903965"/>
    <nd ref="3269244273"/>
    <tag k="lit" v="no"/>
    <tag k="ref" v="A 72"/>
    <tag k="lanes" v="2"/>
    <tag k="hazmat" v="designated"/>
    <tag k="oneway" v="yes"/>
    <tag k="bdouble" v="yes"/>
    <tag k="highway" v="motorway"/>
    <tag k="int_ref" v="E 441"/>
    <tag k="maxspeed" v="none"/>
    <tag k="source:maxspeed" v="DE:motorway"/>
  </way>
  <way id="320411467" version="-1" timestamp="1969-12-31T23:59:59Z">
    <nd ref="95023990"/>
    <nd ref="20975253"/>
    <nd ref="3269244261"/>
    <nd ref="204102793"/>
    <tag k="ref" v="A 72"/>
    <tag k="lanes" v="3"/>
    <tag k="hazmat" v="designated"/>
    <tag k="oneway" v="yes"/>
    <tag k="bdouble" v="yes"/>
    <tag k="highway" v="motorway"/>
    <tag k="int_ref" v="E 441"/>
    <tag k="maxspeed" v="none"/>
    <tag k="placement" v="right_of:1"/>
    <tag k="turn:lanes" v="none|none|merge_to_left"/>
    <tag k="source:maxspeed" v="DE:motorway"/>
  </way>
  <way id="320411468" version="-1" timestamp="1969-12-31T23:59:59Z">
    <nd ref="204102793"/>
    <nd ref="3269260277"/>
    <nd ref="3269260276"/>
    <nd ref="20975254"/>
    <nd ref="23887624"/>
    <nd ref="261680434"/>
    <tag k="ref" v="A 72"/>
    <tag k="lanes" v="2"/>
    <tag k="hazmat" v="designated"/>
    <tag k="oneway" v="yes"/>
    <tag k="bdouble" v="yes"/>
    <tag k="highway" v="motorway"/>
    <tag k="int_ref" v="E 441"/>
    <tag k="maxspeed" v="none"/>
    <tag k="source:maxspeed" v="DE:motorway"/>
  </way>
  <way id="320411469" version="-1" timestamp="1969-12-31T23:59:59Z">
    <nd ref="3132028785"/>
    <nd ref="3132028776"/>
    <nd ref="204102795"/>
    <nd ref="3132028779"/>
    <nd ref="1296357496"/>
    <tag k="lit" v="no"/>
    <tag k="ref" v="A 72"/>
    <tag k="lanes" v="2"/>
    <tag k="hazmat" v="designated"/>
    <tag k="oneway" v="yes"/>
    <tag k="bdouble" v="yes"/>
    <tag k="highway" v="motorway"/>
    <tag k="int_ref" v="E 441"/>
    <tag k="maxspeed" v="none"/>
    <tag k="source:maxspeed" v="DE:motorway"/>
  </way>
  <way id="320411470" version="-1" timestamp="1969-12-31T23:59:59Z">
    <nd ref="1296357496"/>
    <nd ref="541204"/>
    <nd ref="186903961"/>
    <nd ref="3132028797"/>
    <nd ref="1296357478"/>
    <tag k="lit" v="no"/>
    <tag k="ref" v="A 72"/>
    <tag k="lanes" v="3"/>
    <tag k="hazmat" v="designated"/>
    <tag k="oneway" v="yes"/>
    <tag k="bdouble" v="yes"/>
    <tag k="highway" v="motorway"/>
    <tag k="int_ref" v="E 441"/>
    <tag k="maxspeed" v="none"/>
    <tag k="placement" v="right_of:1"/>
    <tag k="turn:lanes" v="none|none|merge_to_left"/>
    <tag k="source:maxspeed" v="DE:motorway"/>
  </way>
  <way id="320411471" version="-1" timestamp="1969-12-31T23:59:59Z">
    <nd ref="3269244274"/>
    <nd ref="20975246"/>
    <nd ref="2064962798"/>
    <nd ref="204107929"/>
    <nd ref="565503778"/>
    <nd ref="20975247"/>
    <nd ref="2064962797"/>
    <nd ref="2064962793"/>
    <nd ref="204107925"/>
    <tag k="lit" v="no"/>
    <tag k="ref" v="A 72"/>
    <tag k="lanes" v="2"/>
    <tag k="hazmat" v="designated"/>
    <tag k="oneway" v="yes"/>
    <tag k="bdouble" v="yes"/>
    <tag k="highway" v="motorway"/>
    <tag k="int_ref" v="E 441"/>
    <tag k="maxspeed" v="130"/>
    <tag k="source:maxspeed" v="sign"/>
  </way>
  <way id="320413333" version="-1" timestamp="1969-12-31T23:59:59Z">
    <nd ref="408411026"/>
    <nd ref="204100436"/>
    <tag k="ref" v="A 72"/>
    <tag k="lanes" v="3"/>
    <tag k="hazmat" v="designated"/>
    <tag k="oneway" v="yes"/>
    <tag k="bdouble" v="yes"/>
    <tag k="highway" v="motorway"/>
    <tag k="int_ref" v="E 441"/>
    <tag k="maxspeed" v="none"/>
    <tag k="placement" v="right_of:1"/>
    <tag k="turn:lanes" v="none|none|merge_to_left"/>
    <tag k="source:maxspeed" v="DE:motorway"/>
  </way>
  <way id="320413334" version="-1" timestamp="1969-12-31T23:59:59Z">
    <nd ref="204100437"/>
    <nd ref="321580992"/>
    <tag k="ref" v="A 72"/>
    <tag k="lanes" v="3"/>
    <tag k="hazmat" v="designated"/>
    <tag k="oneway" v="yes"/>
    <tag k="bdouble" v="yes"/>
    <tag k="highway" v="motorway"/>
    <tag k="int_ref" v="E 441"/>
    <tag k="maxspeed" v="none"/>
    <tag k="placement" v="right_of:1"/>
    <tag k="turn:lanes" v="none|none|slight_right"/>
    <tag k="source:maxspeed" v="DE:motorway"/>
    <tag k="destination:symbol:lanes" v="none|none|parking;toilets"/>
  </way>
  <way id="320413335" version="-1" timestamp="1969-12-31T23:59:59Z">
    <nd ref="3269260273"/>
    <nd ref="261680432"/>
    <tag k="ref" v="A 72"/>
    <tag k="lanes" v="2"/>
    <tag k="hazmat" v="designated"/>
    <tag k="oneway" v="yes"/>
    <tag k="bdouble" v="yes"/>
    <tag k="highway" v="motorway"/>
    <tag k="int_ref" v="E 441"/>
    <tag k="maxspeed" v="none"/>
    <tag k="source:maxspeed" v="DE:motorway"/>
  </way>
  <way id="320413336" version="-1" timestamp="1969-12-31T23:59:59Z">
    <nd ref="3269260274"/>
    <nd ref="30471101"/>
    <tag k="ref" v="A 72"/>
    <tag k="lanes" v="3"/>
    <tag k="hazmat" v="designated"/>
    <tag k="oneway" v="yes"/>
    <tag k="bdouble" v="yes"/>
    <tag k="highway" v="motorway"/>
    <tag k="int_ref" v="E 441"/>
    <tag k="maxspeed" v="none"/>
    <tag k="placement" v="right_of:1"/>
    <tag k="turn:lanes" v="none|none|slight_right"/>
    <tag k="source:maxspeed" v="DE:motorway"/>
    <tag k="destination:symbol:lanes" v="none|none|parking;toilets"/>
  </way>
  <way id="320413337" version="-1" timestamp="1969-12-31T23:59:59Z">
    <nd ref="321580992"/>
    <nd ref="3137598571"/>
    <nd ref="160513503"/>
    <tag k="ref" v="A 72"/>
    <tag k="lanes" v="2"/>
    <tag k="hazmat" v="designated"/>
    <tag k="oneway" v="yes"/>
    <tag k="bdouble" v="yes"/>
    <tag k="highway" v="motorway"/>
    <tag k="int_ref" v="E 441"/>
    <tag k="maxspeed" v="none"/>
    <tag k="source:maxspeed" v="DE:motorway"/>
  </way>
  <way id="320413338" version="-1" timestamp="1969-12-31T23:59:59Z">
    <nd ref="204100436"/>
    <nd ref="3269260266"/>
    <nd ref="1731178148"/>
    <nd ref="2064984176"/>
    <nd ref="20975256"/>
    <nd ref="2064984172"/>
    <nd ref="160510303"/>
    <nd ref="204097955"/>
    <nd ref="369318591"/>
    <tag k="ref" v="A 72"/>
    <tag k="lanes" v="2"/>
    <tag k="hazmat" v="designated"/>
    <tag k="oneway" v="yes"/>
    <tag k="bdouble" v="yes"/>
    <tag k="highway" v="motorway"/>
    <tag k="int_ref" v="E 441"/>
    <tag k="maxspeed" v="none"/>
    <tag k="source:maxspeed" v="DE:motorway"/>
  </way>
  <way id="320420529" version="-1" timestamp="1969-12-31T23:59:59Z">
    <nd ref="2081261986"/>
    <nd ref="23716125"/>
    <nd ref="1731178146"/>
    <nd ref="3269370841"/>
    <nd ref="20975259"/>
    <nd ref="3269370838"/>
    <nd ref="3269370837"/>
    <nd ref="3269370835"/>
    <tag k="ref" v="A 72"/>
    <tag k="lanes" v="2"/>
    <tag k="hazmat" v="designated"/>
    <tag k="oneway" v="yes"/>
    <tag k="bdouble" v="yes"/>
    <tag k="highway" v="motorway"/>
    <tag k="int_ref" v="E 441"/>
    <tag k="maxspeed" v="none"/>
    <tag k="source:maxspeed" v="DE:motorway"/>
  </way>
  <way id="320420530" version="-1" timestamp="1969-12-31T23:59:59Z">
    <nd ref="3269339773"/>
    <nd ref="247089328"/>
    <tag k="ref" v="A 72"/>
    <tag k="lanes" v="3"/>
    <tag k="hazmat" v="designated"/>
    <tag k="oneway" v="yes"/>
    <tag k="bdouble" v="yes"/>
    <tag k="highway" v="motorway"/>
    <tag k="int_ref" v="E 441"/>
    <tag k="maxspeed" v="none"/>
    <tag k="placement" v="right_of:1"/>
    <tag k="turn:lanes" v="none|none|slight_right"/>
    <tag k="source:maxspeed" v="sign"/>
    <tag k="destination:lanes" v="Stollberg-West|Stollberg-West|Hartenstein;Lichtenstein;Oelsnitz/Erzgeb.;Aue"/>
  </way>
  <way id="320420531" version="-1" timestamp="1969-12-31T23:59:59Z">
    <nd ref="23716134"/>
    <nd ref="3269339767"/>
    <tag k="ref" v="A 72"/>
    <tag k="lanes" v="3"/>
    <tag k="hazmat" v="designated"/>
    <tag k="oneway" v="yes"/>
    <tag k="bdouble" v="yes"/>
    <tag k="highway" v="motorway"/>
    <tag k="int_ref" v="E 441"/>
    <tag k="maxspeed" v="none"/>
    <tag k="placement" v="right_of:1"/>
    <tag k="turn:lanes" v="none|none|merge_to_left"/>
    <tag k="source:maxspeed" v="DE:motorway"/>
  </way>
  <way id="320420532" version="-1" timestamp="1969-12-31T23:59:59Z">
    <nd ref="3269339771"/>
    <nd ref="23716121"/>
    <tag k="ref" v="A 72"/>
    <tag k="lanes" v="3"/>
    <tag k="hazmat" v="designated"/>
    <tag k="oneway" v="yes"/>
    <tag k="bdouble" v="yes"/>
    <tag k="highway" v="motorway"/>
    <tag k="int_ref" v="E 441"/>
    <tag k="maxspeed" v="none"/>
    <tag k="placement" v="right_of:1"/>
    <tag k="turn:lanes" v="none|none|slight_right"/>
    <tag k="source:maxspeed" v="DE:motorway"/>
    <tag k="destination:lanes" v="Zwickau-Ost|Zwickau-Ost|Hartenstein;Schwarzenberg;Aue;Lichtenstein"/>
  </way>
  <way id="320420533" version="-1" timestamp="1969-12-31T23:59:59Z">
    <nd ref="204097947"/>
    <nd ref="369318594"/>
    <tag k="ref" v="A 72"/>
    <tag k="lanes" v="2"/>
    <tag k="hazmat" v="designated"/>
    <tag k="oneway" v="yes"/>
    <tag k="bdouble" v="yes"/>
    <tag k="highway" v="motorway"/>
    <tag k="int_ref" v="E 441"/>
    <tag k="maxspeed" v="none"/>
    <tag k="source:maxspeed" v="DE:motorway"/>
  </way>
  <way id="320420534" version="-1" timestamp="1969-12-31T23:59:59Z">
    <nd ref="3269339767"/>
    <nd ref="2342205455"/>
    <nd ref="204097947"/>
    <tag k="ref" v="A 72"/>
    <tag k="lanes" v="2"/>
    <tag k="hazmat" v="designated"/>
    <tag k="oneway" v="yes"/>
    <tag k="bdouble" v="yes"/>
    <tag k="highway" v="motorway"/>
    <tag k="int_ref" v="E 441"/>
    <tag k="maxspeed" v="none"/>
    <tag k="source:maxspeed" v="DE:motorway"/>
  </way>
  <way id="320420537" version="-1" timestamp="1969-12-31T23:59:59Z">
    <nd ref="23716121"/>
    <nd ref="1998869666"/>
    <nd ref="20975258"/>
    <tag k="ref" v="A 72"/>
    <tag k="lanes" v="2"/>
    <tag k="hazmat" v="designated"/>
    <tag k="oneway" v="yes"/>
    <tag k="bdouble" v="yes"/>
    <tag k="highway" v="motorway"/>
    <tag k="int_ref" v="E 441"/>
    <tag k="maxspeed" v="none"/>
    <tag k="source:maxspeed" v="DE:motorway"/>
  </way>
  <way id="320423295" version="-1" timestamp="1969-12-31T23:59:59Z">
    <nd ref="3269370835"/>
    <nd ref="20975260"/>
    <nd ref="1731178136"/>
    <nd ref="2065067494"/>
    <nd ref="20975261"/>
    <nd ref="1731178134"/>
    <nd ref="255434133"/>
    <nd ref="2065067498"/>
    <nd ref="20975262"/>
    <nd ref="1914196377"/>
    <nd ref="2065067509"/>
    <nd ref="204095122"/>
    <nd ref="1701047454"/>
    <nd ref="296339435"/>
    <tag k="ref" v="A 72"/>
    <tag k="lanes" v="2"/>
    <tag k="hazmat" v="designated"/>
    <tag k="oneway" v="yes"/>
    <tag k="bdouble" v="yes"/>
    <tag k="highway" v="motorway"/>
    <tag k="int_ref" v="E 441"/>
    <tag k="maxspeed" v="none"/>
    <tag k="source:maxspeed" v="DE:motorway"/>
  </way>
</osm>
